Observation data for Fort McKavett on 06/24/2019      Previous  Date  Next       Current Mesonet Observations  Soil Data  Daily Summary Page  Observations in Plain Language
KMC1 240500Z 17006KT 25/23 A2986 RMK A01 T02530225  RH  084%=      5-min Rain = 0
KMC1 240501Z 18008KT 25/23 A2986 RMK A01 T02540226  RH  085%=      5-min Rain = 0
KMC1 240502Z 17008KT 25/23 A2986 RMK A01 T02540226  RH  085%=      5-min Rain = 0
KMC1 240503Z 19009KT 25/23 A2986 RMK A01 T02540226  RH  085%=      5-min Rain = 0
KMC1 240504Z 18008KT 25/23 A2986 RMK A01 T02540226  RH  084%=      5-min Rain = 0
KMC1 240505Z 18009KT 25/23 A2986 RMK A01 T02540226  RH  084%=      5-min Rain = 0
KMC1 240506Z 18009KT 25/23 A2986 RMK A01 T02540226  RH  084%=      5-min Rain = 0
KMC1 240507Z 17009KT 25/23 A2986 RMK A01 T02540226  RH  084%=      5-min Rain = 0
KMC1 240508Z 18009KT 25/23 A2986 RMK A01 T02540226  RH  084%=      5-min Rain = 0
KMC1 240509Z 18008KT 26/23 A2986 RMK A01 T02550226  RH  084%=      5-min Rain = 0
KMC1 240510Z 18008KT 25/23 A2986 RMK A01 T02540226  RH  084%=      5-min Rain = 0
KMC1 240511Z 17009KT 25/23 A2985 RMK A01 T02540226  RH  084%=      5-min Rain = 0
KMC1 240512Z 17008KT 25/23 A2985 RMK A01 T02540226  RH  084%=      5-min Rain = 0
KMC1 240513Z 18008KT 25/23 A2985 RMK A01 T02540226  RH  084%=      5-min Rain = 0
KMC1 240514Z 18008KT 25/23 A2985 RMK A01 T02540226  RH  084%=      5-min Rain = 0
KMC1 240515Z 18009KT 25/23 A2985 RMK A01 T02540226  RH  084%=      5-min Rain = 0
KMC1 240516Z 18008KT 25/23 A2985 RMK A01 T02540226  RH  084%=      5-min Rain = 0
KMC1 240517Z 18009G14KT 25/23 A2985 RMK A01 T02540226  RH  084%=      5-min Rain = 0
KMC1 240518Z 18010KT 25/23 A2985 RMK A01 T02540226  RH  084%=      5-min Rain = 0
KMC1 240519Z 18008KT 25/23 A2985 RMK A01 T02540226  RH  084%=      5-min Rain = 0
KMC1 240520Z 18009G14KT 25/23 A2985 RMK A01 T02540226  RH  084%=      5-min Rain = 0
KMC1 240521Z 19009KT 26/23 A2985 RMK A01 T02550226  RH  084%=      5-min Rain = 0
KMC1 240522Z 18008KT 26/23 A2985 RMK A01 T02550225  RH  084%=      5-min Rain = 0
KMC1 240523Z 18010KT 26/23 A2985 RMK A01 T02550226  RH  084%=      5-min Rain = 0
KMC1 240524Z 18009KT 26/23 A2985 RMK A01 T02550226  RH  084%=      5-min Rain = 0
KMC1 240525Z 18008KT 26/23 A2985 RMK A01 T02550226  RH  084%=      5-min Rain = 0
KMC1 240526Z 18009G14KT 26/23 A2985 RMK A01 T02550226  RH  084%=      5-min Rain = 0
KMC1 240527Z 17009KT 26/23 A2985 RMK A01 T02550226  RH  084%=      5-min Rain = 0
KMC1 240528Z 18008KT 26/23 A2985 RMK A01 T02550226  RH  084%=      5-min Rain = 0
KMC1 240529Z 18009KT 26/23 A2985 RMK A01 T02550226  RH  084%=      5-min Rain = 0
KMC1 240530Z 18009KT 26/23 A2985 RMK A01 T02550226  RH  084%=      5-min Rain = 0
KMC1 240531Z 18010KT 26/23 A2985 RMK A01 T02550225  RH  084%=      5-min Rain = 0
KMC1 240532Z 18009KT 26/23 A2985 RMK A01 T02550225  RH  083%=      5-min Rain = 0
KMC1 240533Z 17009G14KT 26/23 A2985 RMK A01 T02550225  RH  083%=      5-min Rain = 0
KMC1 240534Z 17007KT 26/23 A2985 RMK A01 T02550225  RH  084%=      5-min Rain = 0
KMC1 240535Z 17008KT 26/23 A2986 RMK A01 T02550225  RH  083%=      5-min Rain = 0
KMC1 240536Z 17008KT 26/23 A2986 RMK A01 T02550225  RH  084%=      5-min Rain = 0
KMC1 240537Z 17009KT 26/23 A2985 RMK A01 T02550225  RH  084%=      5-min Rain = 0
KMC1 240538Z 18009KT 26/23 A2986 RMK A01 T02550225  RH  084%=      5-min Rain = 0
KMC1 240539Z 17009KT 26/23 A2986 RMK A01 T02550225  RH  084%=      5-min Rain = 0
KMC1 240540Z 17009KT 26/23 A2986 RMK A01 T02550225  RH  083%=      5-min Rain = 0
KMC1 240541Z 17010KT 26/23 A2986 RMK A01 T02550225  RH  083%=      5-min Rain = 0
KMC1 240542Z 18008KT 26/23 A2986 RMK A01 T02550225  RH  083%=      5-min Rain = 0
KMC1 240543Z 17006KT 26/23 A2986 RMK A01 T02550225  RH  083%=      5-min Rain = 0
KMC1 240544Z 17009KT 26/23 A2986 RMK A01 T02550225  RH  083%=      5-min Rain = 0
KMC1 240545Z 17009KT 26/23 A2986 RMK A01 T02550225  RH  084%=      5-min Rain = 0
KMC1 240546Z 17010KT 26/23 A2985 RMK A01 T02550225  RH  084%=      5-min Rain = 0
KMC1 240547Z 17008KT 26/23 A2986 RMK A01 T02550225  RH  084%=      5-min Rain = 0
KMC1 240548Z 17008KT 26/23 A2986 RMK A01 T02550225  RH  083%=      5-min Rain = 0
KMC1 240549Z 17007KT 26/23 A2986 RMK A01 T02550225  RH  083%=      5-min Rain = 0
KMC1 240550Z 18010KT 25/23 A2985 RMK A01 T02540225  RH  084%=      5-min Rain = 0
KMC1 240551Z 17007KT 26/22 A2985 RMK A01 T02550224  RH  083%=      5-min Rain = 0
KMC1 240552Z 17007KT 25/22 A2985 RMK A01 T02540224  RH  083%=      5-min Rain = 0
KMC1 240553Z 17008KT 26/23 A2985 RMK A01 T02550225  RH  084%=      5-min Rain = 0
KMC1 240554Z 17008KT 25/23 A2985 RMK A01 T02540225  RH  084%=      5-min Rain = 0
KMC1 240555Z 17010KT 25/23 A2985 RMK A01 T02540225  RH  084%=      5-min Rain = 0
KMC1 240556Z 17010G15KT 25/23 A2985 RMK A01 T02540225  RH  084%=      5-min Rain = 0
KMC1 240557Z 17011KT 26/23 A2985 RMK A01 T02550225  RH  083%=      5-min Rain = 0
KMC1 240558Z 17011KT 26/23 A2985 RMK A01 T02550225  RH  083%=      5-min Rain = 0
KMC1 240559Z 17009KT 26/22 A2985 RMK A01 T02550224  RH  083%=      5-min Rain = 0
KMC1 240600Z 17011KT 26/23 A2985 RMK A01 T02560225  RH  083%=      5-min Rain = 0
KMC1 240601Z 17010KT 26/23 A2985 RMK A01 T02560225  RH  083%=      5-min Rain = 0
KMC1 240602Z 17008KT 26/23 A2985 RMK A01 T02560225  RH  083%=      5-min Rain = 0
KMC1 240603Z 17007KT 26/23 A2985 RMK A01 T02560225  RH  083%=      5-min Rain = 0
KMC1 240604Z 18009KT 26/23 A2985 RMK A01 T02550225  RH  083%=      5-min Rain = 0
KMC1 240605Z 17009KT 26/23 A2985 RMK A01 T02550225  RH  083%=      5-min Rain = 0
KMC1 240606Z 18009KT 26/23 A2985 RMK A01 T02550225  RH  083%=      5-min Rain = 0
KMC1 240607Z 18008KT 26/23 A2985 RMK A01 T02550225  RH  083%=      5-min Rain = 0
KMC1 240608Z 18009KT 26/23 A2985 RMK A01 T02550225  RH  083%=      5-min Rain = 0
KMC1 240609Z 17010KT 26/23 A2985 RMK A01 T02550225  RH  083%=      5-min Rain = 0
KMC1 240610Z 18009KT 26/23 A2985 RMK A01 T02550225  RH  083%=      5-min Rain = 0
KMC1 240611Z 18011KT 26/23 A2985 RMK A01 T02550225  RH  084%=      5-min Rain = 0
KMC1 240612Z 18009KT 26/23 A2985 RMK A01 T02550225  RH  084%=      5-min Rain = 0
KMC1 240613Z 17011KT 26/23 A2985 RMK A01 T02550225  RH  084%=      5-min Rain = 0
KMC1 240614Z 17008KT 26/23 A2985 RMK A01 T02550225  RH  084%=      5-min Rain = 0
KMC1 240615Z 17010G16KT 26/23 A2985 RMK A01 T02550225  RH  083%=      5-min Rain = 0
KMC1 240616Z 17011KT 26/23 A2985 RMK A01 T02550225  RH  084%=      5-min Rain = 0
KMC1 240617Z 18010G15KT 26/23 A2984 RMK A01 T02560226  RH  084%=      5-min Rain = 0
KMC1 240618Z 17010KT 26/23 A2985 RMK A01 T02560226  RH  084%=      5-min Rain = 0
KMC1 240619Z 17007G12KT 26/23 A2985 RMK A01 T02550226  RH  084%=      5-min Rain = 0
KMC1 240620Z 17010KT 26/23 A2985 RMK A01 T02550226  RH  084%=      5-min Rain = 0
KMC1 240621Z 17011KT 26/23 A2985 RMK A01 T02550226  RH  084%=      5-min Rain = 0
KMC1 240622Z 17011KT 26/23 A2985 RMK A01 T02550226  RH  084%=      5-min Rain = 0
KMC1 240623Z 17009G14KT 26/23 A2984 RMK A01 T02550226  RH  084%=      5-min Rain = 0
KMC1 240624Z 17010KT 26/23 A2984 RMK A01 T02550226  RH  084%=      5-min Rain = 0
KMC1 240625Z 17010KT 26/23 A2984 RMK A01 T02550227  RH  084%=      5-min Rain = 0
KMC1 240626Z 17010G15KT 26/23 A2984 RMK A01 T02550227  RH  084%=      5-min Rain = 0
KMC1 240627Z 18008KT 26/23 A2984 RMK A01 T02550227  RH  084%=      5-min Rain = 0
KMC1 240628Z 17009KT 26/23 A2985 RMK A01 T02550227  RH  085%=      5-min Rain = 0
KMC1 240629Z 17008KT 26/23 A2985 RMK A01 T02550227  RH  085%=      5-min Rain = 0
KMC1 240630Z 18008KT 26/23 A2984 RMK A01 T02550227  RH  085%=      5-min Rain = 0
KMC1 240631Z 18009G14KT 26/23 A2984 RMK A01 T02550227  RH  085%=      5-min Rain = 0
KMC1 240632Z 18010KT 26/23 A2984 RMK A01 T02550228  RH  085%=      5-min Rain = 0
KMC1 240633Z 17010KT 26/23 A2984 RMK A01 T02550228  RH  085%=      5-min Rain = 0
KMC1 240634Z 17011KT 26/23 A2984 RMK A01 T02550228  RH  085%=      5-min Rain = 0
KMC1 240635Z 17009KT 26/23 A2984 RMK A01 T02550228  RH  085%=      5-min Rain = 0
KMC1 240636Z 17010KT 26/23 A2984 RMK A01 T02550228  RH  085%=      5-min Rain = 0
KMC1 240637Z 18012KT 26/23 A2984 RMK A01 T02550229  RH  085%=      5-min Rain = 0
KMC1 240638Z 18010KT 26/23 A2984 RMK A01 T02550229  RH  085%=      5-min Rain = 0
KMC1 240639Z 17010KT 26/23 A2984 RMK A01 T02550229  RH  085%=      5-min Rain = 0
KMC1 240640Z 17011KT 26/23 A2984 RMK A01 T02550229  RH  085%=      5-min Rain = 0
KMC1 240641Z 18010KT 26/23 A2984 RMK A01 T02550229  RH  086%=      5-min Rain = 0
KMC1 240642Z 18008KT 26/23 A2984 RMK A01 T02550229  RH  086%=      5-min Rain = 0
KMC1 240643Z 18010G15KT 25/23 A2984 RMK A01 T02540229  RH  086%=      5-min Rain = 0
KMC1 240644Z 18009KT 25/23 A2984 RMK A01 T02540229  RH  086%=      5-min Rain = 0
KMC1 240645Z 17008KT 25/23 A2984 RMK A01 T02540229  RH  086%=      5-min Rain = 0
KMC1 240646Z 18008KT 25/23 A2984 RMK A01 T02540229  RH  086%=      5-min Rain = 0
KMC1 240647Z 17009KT 25/23 A2984 RMK A01 T02540229  RH  086%=      5-min Rain = 0
KMC1 240648Z 17010KT 25/23 A2984 RMK A01 T02530229  RH  087%=      5-min Rain = 0
KMC1 240649Z 17011KT 25/23 A2984 RMK A01 T02530229  RH  087%=      5-min Rain = 0
KMC1 240650Z 17011KT 25/23 A2984 RMK A01 T02530229  RH  086%=      5-min Rain = 0
KMC1 240651Z 17010KT 25/23 A2984 RMK A01 T02530229  RH  087%=      5-min Rain = 0
KMC1 240652Z 17010KT 25/23 A2984 RMK A01 T02530229  RH  087%=      5-min Rain = 0
KMC1 240653Z 17010KT 25/23 A2984 RMK A01 T02530230  RH  087%=      5-min Rain = 0
KMC1 240654Z 18009G14KT 25/23 A2984 RMK A01 T02530230  RH  087%=      5-min Rain = 0
KMC1 240655Z 17008KT 25/23 A2984 RMK A01 T02540230  RH  087%=      5-min Rain = 0
KMC1 240656Z 18008KT 25/23 A2984 RMK A01 T02530230  RH  087%=      5-min Rain = 0
KMC1 240657Z 17011KT 25/23 A2984 RMK A01 T02530230  RH  087%=      5-min Rain = 0
KMC1 240658Z 17007KT 25/23 A2984 RMK A01 T02530230  RH  087%=      5-min Rain = 0
KMC1 240659Z 17009KT 25/23 A2984 RMK A01 T02530230  RH  087%=      5-min Rain = 0
KMC1 240700Z 17008KT 25/23 A2984 RMK A01 T02520230  RH  087%=      5-min Rain = 0
KMC1 240701Z 18008G15KT 25/23 A2984 RMK A01 T02520230  RH  088%=      5-min Rain = 0
KMC1 240702Z 18008KT 25/23 A2984 RMK A01 T02530231  RH  088%=      5-min Rain = 0
KMC1 240703Z 18010KT 25/23 A2984 RMK A01 T02520231  RH  088%=      5-min Rain = 0
KMC1 240704Z 18007KT 25/23 A2984 RMK A01 T02520231  RH  088%=      5-min Rain = 0
KMC1 240705Z 18008KT 25/23 A2984 RMK A01 T02520231  RH  088%=      5-min Rain = 0
KMC1 240706Z 17008KT 25/23 A2984 RMK A01 T02520231  RH  088%=      5-min Rain = 0
KMC1 240707Z 18008KT 25/23 A2984 RMK A01 T02520231  RH  088%=      5-min Rain = 0
KMC1 240708Z 18008KT 25/23 A2984 RMK A01 T02520231  RH  088%=      5-min Rain = 0
KMC1 240709Z 17008KT 25/23 A2984 RMK A01 T02520231  RH  088%=      5-min Rain = 0
KMC1 240710Z 17004KT 25/23 A2984 RMK A01 T02520231  RH  088%=      5-min Rain = 0
KMC1 240711Z 18005KT 25/23 A2985 RMK A01 T02520232  RH  088%=      5-min Rain = 0
KMC1 240712Z 18005G10KT 25/23 A2985 RMK A01 T02520232  RH  088%=      5-min Rain = 0
KMC1 240713Z 14003KT 25/23 A2985 RMK A01 T02520231  RH  088%=      5-min Rain = 0
KMC1 240714Z 13003KT 25/23 A2985 RMK A01 T02510231  RH  089%=      5-min Rain = 0
KMC1 240715Z 09002KT 25/23 A2985 RMK A01 T02510232  RH  089%=      5-min Rain = 0
KMC1 240716Z 05003KT 25/23 A2985 RMK A01 T02510231  RH  089%=      5-min Rain = 0
KMC1 240717Z 05004KT 25/23 A2985 RMK A01 T02510231  RH  089%=      5-min Rain = 0
KMC1 240718Z 04005KT 25/23 A2985 RMK A01 T02500231  RH  089%=      5-min Rain = 0
KMC1 240719Z 06004KT 25/23 A2985 RMK A01 T02500231  RH  089%=      5-min Rain = 0
KMC1 240720Z 03003KT 25/23 A2985 RMK A01 T02500231  RH  089%=      5-min Rain = 0
KMC1 240721Z 03003KT 25/23 A2986 RMK A01 T02500231  RH  089%=      5-min Rain = 0
KMC1 240722Z 02004KT 25/23 A2986 RMK A01 T02500231  RH  089%=      5-min Rain = 0
KMC1 240723Z 02003KT 25/23 A2985 RMK A01 T02490231  RH  090%=      5-min Rain = 0
KMC1 240724Z 02004KT 25/23 A2985 RMK A01 T02490231  RH  090%=      5-min Rain = 0
KMC1 240725Z 02004KT 25/23 A2985 RMK A01 T02480231  RH  090%=      5-min Rain = 0
KMC1 240726Z 03004KT 25/23 A2985 RMK A01 T02480232  RH  091%=      5-min Rain = 0
KMC1 240727Z 02004KT 25/23 A2985 RMK A01 T02480232  RH  091%=      5-min Rain = 0
KMC1 240728Z 02003KT 25/23 A2985 RMK A01 T02480232  RH  091%=      5-min Rain = 0
KMC1 240729Z 36001KT 25/23 A2985 RMK A01 T02480232  RH  091%=      5-min Rain = 0
KMC1 240730Z 00002KT 25/23 A2985 RMK A01 T02490232  RH  090%=      5-min Rain = 0
KMC1 240731Z 34001KT 25/23 A2985 RMK A01 T02490232  RH  090%=      5-min Rain = 0
KMC1 240732Z 35000KT 25/23 A2985 RMK A01 T02500233  RH  090%=      5-min Rain = 0
KMC1 240733Z 28000KT 25/23 A2985 RMK A01 T02510233  RH  090%=      5-min Rain = 0
KMC1 240734Z 20000KT 25/23 A2985 RMK A01 T02510233  RH  089%=      5-min Rain = 0
KMC1 240735Z 17001KT 25/23 A2985 RMK A01 T02510232  RH  089%=      5-min Rain = 0
KMC1 240736Z 16002KT 25/23 A2985 RMK A01 T02520233  RH  089%=      5-min Rain = 0
KMC1 240737Z 18004KT 25/23 A2985 RMK A01 T02520233  RH  089%=      5-min Rain = 0
KMC1 240738Z 16004KT 25/23 A2985 RMK A01 T02530232  RH  089%=      5-min Rain = 0
KMC1 240739Z 14003KT 25/23 A2985 RMK A01 T02520232  RH  088%=      5-min Rain = 0
KMC1 240740Z 17004KT 25/23 A2985 RMK A01 T02520232  RH  089%=      5-min Rain = 0
KMC1 240741Z 17003KT 25/23 A2984 RMK A01 T02500232  RH  090%=      5-min Rain = 0
KMC1 240742Z 18005KT 25/23 A2984 RMK A01 T02490232  RH  090%=      5-min Rain = 0
KMC1 240743Z 16007KT 25/23 A2984 RMK A01 T02490233  RH  090%=      5-min Rain = 0
KMC1 240744Z 17007KT 25/23 A2984 RMK A01 T02500233  RH  091%=      5-min Rain = 0
KMC1 240745Z 16009KT 25/23 A2984 RMK A01 T02510234  RH  091%=      5-min Rain = 0
KMC1 240746Z 16007KT 25/24 A2984 RMK A01 T02510235  RH  090%=      5-min Rain = 0
KMC1 240747Z 18006KT 25/24 A2984 RMK A01 T02520235  RH  090%=      5-min Rain = 0
KMC1 240748Z 18005KT 25/24 A2985 RMK A01 T02520235  RH  090%=      5-min Rain = 0
KMC1 240749Z 18005KT 25/24 A2985 RMK A01 T02520235  RH  090%=      5-min Rain = 0
KMC1 240750Z 20003KT 25/24 A2985 RMK A01 T02520235  RH  090%=      5-min Rain = 0
KMC1 240751Z 24001KT 25/24 A2985 RMK A01 T02530235  RH  090%=      5-min Rain = 0
KMC1 240752Z 31000KT 25/23 A2985 RMK A01 T02520234  RH  090%=      5-min Rain = 0
KMC1 240753Z 31001KT 25/23 A2985 RMK A01 T02520234  RH  090%=      5-min Rain = 0
KMC1 240754Z 35001KT 25/23 A2985 RMK A01 T02510234  RH  090%=      5-min Rain = 0
KMC1 240755Z 35003KT 25/23 A2985 RMK A01 T02510234  RH  090%=      5-min Rain = 0
KMC1 240756Z 35004KT 25/23 A2986 RMK A01 T02500233  RH  091%=      5-min Rain = 0
KMC1 240757Z 36004KT 25/23 A2986 RMK A01 T02490234  RH  091%=      5-min Rain = 0
KMC1 240758Z 02004KT 25/24 A2986 RMK A01 T02490235  RH  092%=      5-min Rain = 0
KMC1 240759Z 01004KT 25/24 A2986 RMK A01 T02490236  RH  092%=      5-min Rain = 0
KMC1 240800Z 00005KT 25/24 A2986 RMK A01 T02500236  RH  092%=      5-min Rain = 0
KMC1 240801Z 01005KT 25/24 A2986 RMK A01 T02500235  RH  091%=      5-min Rain = 0
KMC1 240802Z 02005KT 25/24 A2986 RMK A01 T02510236  RH  091%=      5-min Rain = 0
KMC1 240803Z 01004KT 25/24 A2986 RMK A01 T02510235  RH  091%=      5-min Rain = 0
KMC1 240804Z 01004KT 25/24 A2986 RMK A01 T02520236  RH  091%=      5-min Rain = 0
KMC1 240805Z 02003KT 25/24 A2986 RMK A01 T02520236  RH  091%=      5-min Rain = 0
KMC1 240806Z 03003KT 25/24 A2986 RMK A01 T02520236  RH  091%=      5-min Rain = 0
KMC1 240807Z 03003KT 25/24 A2986 RMK A01 T02520236  RH  091%=      5-min Rain = 0
KMC1 240808Z 05003KT 25/24 A2986 RMK A01 T02520236  RH  091%=      5-min Rain = 0
KMC1 240809Z 08003KT 25/24 A2986 RMK A01 T02530236  RH  090%=      5-min Rain = 0
KMC1 240810Z 09003KT 25/24 A2985 RMK A01 T02530236  RH  090%=      5-min Rain = 0
KMC1 240811Z 11004KT 25/24 A2985 RMK A01 T02520236  RH  091%=      5-min Rain = 0
KMC1 240812Z 12004KT 25/24 A2985 RMK A01 T02520235  RH  091%=      5-min Rain = 0
KMC1 240813Z 13004KT 25/24 A2985 RMK A01 T02510235  RH  091%=      5-min Rain = 0
KMC1 240814Z 13004KT 25/24 A2985 RMK A01 T02500235  RH  091%=      5-min Rain = 0
KMC1 240815Z 13003KT 25/24 A2985 RMK A01 T02500235  RH  091%=      5-min Rain = 0
KMC1 240816Z 13003KT 25/24 A2985 RMK A01 T02490235  RH  092%=      5-min Rain = 0
KMC1 240817Z 13003KT 25/24 A2985 RMK A01 T02490235  RH  092%=      5-min Rain = 0
KMC1 240818Z 12002KT 25/24 A2985 RMK A01 T02480235  RH  092%=      5-min Rain = 0
KMC1 240819Z 13002KT 25/24 A2985 RMK A01 T02480235  RH  092%=      5-min Rain = 0
KMC1 240820Z 11001KT 25/24 A2985 RMK A01 T02480235  RH  092%=      5-min Rain = 0
KMC1 240821Z 12001KT 25/24 A2985 RMK A01 T02480235  RH  092%=      5-min Rain = 0
KMC1 240822Z 35000KT 25/24 A2985 RMK A01 T02480236  RH  093%=      5-min Rain = 0
KMC1 240823Z 02001KT 25/24 A2985 RMK A01 T02480236  RH  093%=      5-min Rain = 0
KMC1 240824Z 02003KT 25/24 A2985 RMK A01 T02480235  RH  093%=      5-min Rain = 0
KMC1 240825Z 02003KT 25/24 A2985 RMK A01 T02470235  RH  093%=      5-min Rain = 0
KMC1 240826Z 02003KT 25/24 A2985 RMK A01 T02480235  RH  093%=      5-min Rain = 0
KMC1 240827Z 01004KT 25/24 A2985 RMK A01 T02470236  RH  093%=      5-min Rain = 0
KMC1 240828Z 02003KT 25/24 A2985 RMK A01 T02480236  RH  093%=      5-min Rain = 0
KMC1 240829Z 03003KT 25/24 A2985 RMK A01 T02480236  RH  093%=      5-min Rain = 0
KMC1 240830Z 02003KT 25/24 A2985 RMK A01 T02480236  RH  093%=      5-min Rain = 0
KMC1 240831Z 02003KT 25/24 A2985 RMK A01 T02480236  RH  093%=      5-min Rain = 0
KMC1 240832Z 02004KT 25/24 A2985 RMK A01 T02480236  RH  093%=      5-min Rain = 0
KMC1 240833Z 03003KT 25/24 A2985 RMK A01 T02490237  RH  093%=      5-min Rain = 0
KMC1 240834Z 03002KT 25/24 A2986 RMK A01 T02480236  RH  093%=      5-min Rain = 0
KMC1 240835Z 04003KT 25/24 A2986 RMK A01 T02490237  RH  093%=      5-min Rain = 0
KMC1 240836Z 04002KT 25/24 A2986 RMK A01 T02480236  RH  093%=      5-min Rain = 0
KMC1 240837Z 06001KT 25/24 A2986 RMK A01 T02490237  RH  093%=      5-min Rain = 0
KMC1 240838Z 07001KT 25/24 A2986 RMK A01 T02480236  RH  093%=      5-min Rain = 0
KMC1 240839Z 08003KT 25/24 A2986 RMK A01 T02490236  RH  093%=      5-min Rain = 0
KMC1 240840Z 10003KT 25/24 A2986 RMK A01 T02480236  RH  093%=      5-min Rain = 0
KMC1 240841Z 11004KT 25/24 A2985 RMK A01 T02490237  RH  093%=      5-min Rain = 0
KMC1 240842Z 12004KT 25/24 A2985 RMK A01 T02480236  RH  093%=      5-min Rain = 0
KMC1 240843Z 12005KT 25/24 A2985 RMK A01 T02470236  RH  093%=      5-min Rain = 0
KMC1 240844Z 12005KT 25/24 A2985 RMK A01 T02470236  RH  093%=      5-min Rain = 0
KMC1 240845Z 12004KT 25/24 A2985 RMK A01 T02470236  RH  094%=      5-min Rain = 0
KMC1 240846Z 11003KT 25/24 A2985 RMK A01 T02470237  RH  094%=      5-min Rain = 0
KMC1 240847Z 11002KT 25/24 A2985 RMK A01 T02470236  RH  094%=      5-min Rain = 0
KMC1 240848Z 06001KT 25/24 A2985 RMK A01 T02470236  RH  094%=      5-min Rain = 0
KMC1 240849Z 06001KT 25/24 A2986 RMK A01 T02470236  RH  094%=      5-min Rain = 0
KMC1 240850Z 02003KT 25/24 A2986 RMK A01 T02470236  RH  094%=      5-min Rain = 0
KMC1 240851Z 02004KT 25/24 A2986 RMK A01 T02470236  RH  094%=      5-min Rain = 0
KMC1 240852Z 01004KT 25/24 A2986 RMK A01 T02470237  RH  094%=      5-min Rain = 0
KMC1 240853Z 01004KT 25/24 A2986 RMK A01 T02470237  RH  094%=      5-min Rain = 0
KMC1 240854Z 01005KT 25/24 A2986 RMK A01 T02470237  RH  094%=      5-min Rain = 0
KMC1 240855Z 02004KT 25/24 A2986 RMK A01 T02470237  RH  094%=      5-min Rain = 0
KMC1 240856Z 02005KT 25/24 A2986 RMK A01 T02470237  RH  094%=      5-min Rain = 0
KMC1 240857Z 03005KT 25/24 A2986 RMK A01 T02470237  RH  094%=      5-min Rain = 0
KMC1 240858Z 03004KT 25/24 A2986 RMK A01 T02470237  RH  094%=      5-min Rain = 0
KMC1 240859Z 03005KT 25/24 A2986 RMK A01 T02480237  RH  094%=      5-min Rain = 0
KMC1 240900Z 03004KT 25/24 A2986 RMK A01 T02480237  RH  094%=      5-min Rain = 0
KMC1 240901Z 04004KT 25/24 A2986 RMK A01 T02480237  RH  094%=      5-min Rain = 0
KMC1 240902Z 04004KT 25/24 A2986 RMK A01 T02480237  RH  093%=      5-min Rain = 0
KMC1 240903Z 05002KT 25/24 A2986 RMK A01 T02490237  RH  093%=      5-min Rain = 0
KMC1 240904Z 05002KT 25/24 A2986 RMK A01 T02490237  RH  093%=      5-min Rain = 0
KMC1 240905Z 06002KT 25/24 A2986 RMK A01 T02490237  RH  093%=      5-min Rain = 0
KMC1 240906Z 06002KT 25/24 A2986 RMK A01 T02490237  RH  093%=      5-min Rain = 0
KMC1 240907Z 08002KT 25/24 A2986 RMK A01 T02490237  RH  093%=      5-min Rain = 0
KMC1 240908Z 12002KT 25/24 A2986 RMK A01 T02490238  RH  093%=      5-min Rain = 0
KMC1 240909Z 12002KT 25/24 A2986 RMK A01 T02490237  RH  093%=      5-min Rain = 0
KMC1 240910Z 13003KT 25/24 A2986 RMK A01 T02500237  RH  093%=      5-min Rain = 0
KMC1 240911Z 14003KT 25/24 A2986 RMK A01 T02500238  RH  093%=      5-min Rain = 0
KMC1 240912Z 13003KT 25/24 A2986 RMK A01 T02500238  RH  093%=      5-min Rain = 0
KMC1 240913Z 12003KT 25/24 A2985 RMK A01 T02500238  RH  093%=      5-min Rain = 0
KMC1 240914Z 14003KT 25/24 A2985 RMK A01 T02500237  RH  093%=      5-min Rain = 0
KMC1 240915Z 13003KT 25/24 A2985 RMK A01 T02500237  RH  093%=      5-min Rain = 0
KMC1 240916Z 13003KT 25/24 A2985 RMK A01 T02500238  RH  093%=      5-min Rain = 0
KMC1 240917Z 13003KT 25/24 A2985 RMK A01 T02500238  RH  093%=      5-min Rain = 0
KMC1 240918Z 14003KT 25/24 A2985 RMK A01 T02510238  RH  093%=      5-min Rain = 0
KMC1 240919Z 14003KT 25/24 A2985 RMK A01 T02510238  RH  093%=      5-min Rain = 0
KMC1 240920Z 14003KT 25/24 A2986 RMK A01 T02510238  RH  093%=      5-min Rain = 0
KMC1 240921Z 14003KT 25/24 A2986 RMK A01 T02510238  RH  093%=      5-min Rain = 0
KMC1 240922Z 15003KT 25/24 A2986 RMK A01 T02510238  RH  093%=      5-min Rain = 0
KMC1 240923Z 14002KT 25/24 A2986 RMK A01 T02510239  RH  093%=      5-min Rain = 0
KMC1 240924Z 14001KT 25/24 A2986 RMK A01 T02510239  RH  093%=      5-min Rain = 0
KMC1 240925Z 11002KT 25/24 A2986 RMK A01 T02510239  RH  093%=      5-min Rain = 0
KMC1 240926Z 08002KT 25/24 A2986 RMK A01 T02510239  RH  093%=      5-min Rain = 0
KMC1 240927Z 07002KT 25/24 A2986 RMK A01 T02520239  RH  093%=      5-min Rain = 0
KMC1 240928Z 06002KT 25/24 A2986 RMK A01 T02520239  RH  093%=      5-min Rain = 0
KMC1 240929Z 05002KT 25/24 A2986 RMK A01 T02520239  RH  093%=      5-min Rain = 0
KMC1 240930Z 05002KT 25/24 A2986 RMK A01 T02520239  RH  093%=      5-min Rain = 0
KMC1 240931Z 05002KT 25/24 A2986 RMK A01 T02520239  RH  092%=      5-min Rain = 0
KMC1 240932Z 04003KT 25/24 A2986 RMK A01 T02520239  RH  092%=      5-min Rain = 0
KMC1 240933Z 03005KT 25/24 A2987 RMK A01 T02530240  RH  092%=      5-min Rain = 0
KMC1 240934Z 04005KT 25/24 A2987 RMK A01 T02520239  RH  092%=      5-min Rain = 0
KMC1 240935Z 03005KT 25/24 A2987 RMK A01 T02520239  RH  092%=      5-min Rain = 0
KMC1 240936Z 02005KT 25/24 A2987 RMK A01 T02520239  RH  092%=      5-min Rain = 0
KMC1 240937Z 02004KT 25/24 A2987 RMK A01 T02530239  RH  092%=      5-min Rain = 0
KMC1 240938Z 02004KT 25/24 A2987 RMK A01 T02530239  RH  092%=      5-min Rain = 0
KMC1 240939Z 03004KT 25/24 A2987 RMK A01 T02520239  RH  092%=      5-min Rain = 0
KMC1 240940Z 04004KT 25/24 A2987 RMK A01 T02520239  RH  092%=      5-min Rain = 0
KMC1 240941Z 04004KT 25/24 A2987 RMK A01 T02520239  RH  092%=      5-min Rain = 0
KMC1 240942Z 06004KT 25/24 A2987 RMK A01 T02520239  RH  093%=      5-min Rain = 0
KMC1 240943Z 05003KT 25/24 A2987 RMK A01 T02520239  RH  092%=      5-min Rain = 0
KMC1 240944Z 07002KT 25/24 A2987 RMK A01 T02520239  RH  092%=      5-min Rain = 0
KMC1 240945Z 06003KT 25/24 A2987 RMK A01 T02520239  RH  092%=      5-min Rain = 0
KMC1 240946Z 05003KT 25/24 A2987 RMK A01 T02520239  RH  092%=      5-min Rain = 0
KMC1 240947Z 05003KT 25/24 A2987 RMK A01 T02520239  RH  092%=      5-min Rain = 0
KMC1 240948Z 07002KT 25/24 A2987 RMK A01 T02520239  RH  092%=      5-min Rain = 0
KMC1 240949Z 07002KT 25/24 A2987 RMK A01 T02520239  RH  092%=      5-min Rain = 0
KMC1 240950Z 08002KT 25/24 A2987 RMK A01 T02520239  RH  092%=      5-min Rain = 0
KMC1 240951Z 10002KT 25/24 A2987 RMK A01 T02520239  RH  092%=      5-min Rain = 0
KMC1 240952Z 09002KT 25/24 A2987 RMK A01 T02520239  RH  092%=      5-min Rain = 0
KMC1 240953Z 10002KT 25/24 A2987 RMK A01 T02520239  RH  092%=      5-min Rain = 0
KMC1 240954Z 10002KT 25/24 A2987 RMK A01 T02520239  RH  092%=      5-min Rain = 0
KMC1 240955Z 10003KT 25/24 A2987 RMK A01 T02530239  RH  092%=      5-min Rain = 0
KMC1 240956Z 11002KT 25/24 A2987 RMK A01 T02530239  RH  092%=      5-min Rain = 0
KMC1 240957Z 12004KT 25/24 A2987 RMK A01 T02540239  RH  092%=      5-min Rain = 0
KMC1 240958Z 10003KT 25/24 A2987 RMK A01 T02530239  RH  092%=      5-min Rain = 0
KMC1 240959Z 10005KT 25/24 A2987 RMK A01 T02540239  RH  092%=      5-min Rain = 0
KMC1 241000Z 12004KT 25/24 A2986 RMK A01 T02540239  RH  091%=      5-min Rain = 0
KMC1 241001Z 09003KT 25/24 A2986 RMK A01 T02540239  RH  091%=      5-min Rain = 0
KMC1 241002Z 09003KT 25/24 A2987 RMK A01 T02540239  RH  091%=      5-min Rain = 0
KMC1 241003Z 09003KT 25/24 A2987 RMK A01 T02540239  RH  091%=      5-min Rain = 0
KMC1 241004Z 11004KT 25/24 A2987 RMK A01 T02540239  RH  091%=      5-min Rain = 0
KMC1 241005Z 09003KT 25/24 A2987 RMK A01 T02540239  RH  091%=      5-min Rain = 0
KMC1 241006Z 09003KT 25/24 A2987 RMK A01 T02540239  RH  091%=      5-min Rain = 0
KMC1 241007Z 08003KT 25/24 A2987 RMK A01 T02540239  RH  091%=      5-min Rain = 0
KMC1 241008Z 08001KT 25/24 A2987 RMK A01 T02540239  RH  091%=      5-min Rain = 0
KMC1 241009Z 08002KT 26/24 A2987 RMK A01 T02550240  RH  091%=      5-min Rain = 0
KMC1 241010Z 07001KT 25/24 A2987 RMK A01 T02540239  RH  091%=      5-min Rain = 0
KMC1 241011Z 06002KT 25/24 A2987 RMK A01 T02540239  RH  091%=      5-min Rain = 0
KMC1 241012Z 07003KT 25/24 A2988 RMK A01 T02540239  RH  091%=      5-min Rain = 0
KMC1 241013Z 06003KT 25/24 A2988 RMK A01 T02540239  RH  091%=      5-min Rain = 0
KMC1 241014Z 06004KT 26/24 A2988 RMK A01 T02550240  RH  091%=      5-min Rain = 0
KMC1 241015Z 07002KT 26/24 A2988 RMK A01 T02550240  RH  091%=      5-min Rain = 0
KMC1 241016Z 06003KT 26/24 A2988 RMK A01 T02550240  RH  091%=      5-min Rain = 0
KMC1 241017Z 07003KT 26/24 A2988 RMK A01 T02550240  RH  091%=      5-min Rain = 0
KMC1 241018Z 08002KT 26/24 A2988 RMK A01 T02550240  RH  091%=      5-min Rain = 0
KMC1 241019Z 07003KT 26/24 A2988 RMK A01 T02550240  RH  091%=      5-min Rain = 0
KMC1 241020Z 06003KT 26/24 A2988 RMK A01 T02550240  RH  091%=      5-min Rain = 0
KMC1 241021Z 08003KT 26/24 A2988 RMK A01 T02550240  RH  091%=      5-min Rain = 0
KMC1 241022Z 08003KT 26/24 A2988 RMK A01 T02550240  RH  091%=      5-min Rain = 0
KMC1 241023Z 09003KT 26/24 A2988 RMK A01 T02550240  RH  091%=      5-min Rain = 0
KMC1 241024Z 08003KT 26/24 A2988 RMK A01 T02550240  RH  091%=      5-min Rain = 0
KMC1 241025Z 09002KT 26/24 A2988 RMK A01 T02560240  RH  091%=      5-min Rain = 0
KMC1 241026Z 09002KT 26/24 A2988 RMK A01 T02560240  RH  091%=      5-min Rain = 0
KMC1 241027Z 09003KT 26/24 A2988 RMK A01 T02560241  RH  091%=      5-min Rain = 0
KMC1 241028Z 10003KT 26/24 A2988 RMK A01 T02560240  RH  091%=      5-min Rain = 0
KMC1 241029Z 10004KT 26/24 A2988 RMK A01 T02560240  RH  091%=      5-min Rain = 0
KMC1 241030Z 11003KT 26/24 A2988 RMK A01 T02560240  RH  091%=      5-min Rain = 0
KMC1 241031Z 11003KT 26/24 A2988 RMK A01 T02560240  RH  091%=      5-min Rain = 0
KMC1 241032Z 11004KT 26/24 A2988 RMK A01 T02560240  RH  091%=      5-min Rain = 0
KMC1 241033Z 10004KT 26/24 A2988 RMK A01 T02560241  RH  091%=      5-min Rain = 0
KMC1 241034Z 11003KT 26/24 A2988 RMK A01 T02550240  RH  091%=      5-min Rain = 0
KMC1 241035Z 11003KT 26/24 A2988 RMK A01 T02550240  RH  091%=      5-min Rain = 0
KMC1 241036Z 10003KT 26/24 A2988 RMK A01 T02550240  RH  091%=      5-min Rain = 0
KMC1 241037Z 10002KT 26/24 A2988 RMK A01 T02560241  RH  091%=      5-min Rain = 0
KMC1 241038Z 09002KT 26/24 A2988 RMK A01 T02550240  RH  092%=      5-min Rain = 0
KMC1 241039Z 08003KT 26/24 A2988 RMK A01 T02550240  RH  092%=      5-min Rain = 0
KMC1 241040Z 09002KT 26/24 A2988 RMK A01 T02550240  RH  092%=      5-min Rain = 0
KMC1 241041Z 07001KT 26/24 A2988 RMK A01 T02550241  RH  092%=      5-min Rain = 0
KMC1 241042Z 08002KT 26/24 A2988 RMK A01 T02550241  RH  092%=      5-min Rain = 0
KMC1 241043Z 07002KT 25/24 A2989 RMK A01 T02540240  RH  092%=      5-min Rain = 0
KMC1 241044Z 07002KT 26/24 A2989 RMK A01 T02550241  RH  092%=      5-min Rain = 0
KMC1 241045Z 06002KT 25/24 A2989 RMK A01 T02540241  RH  092%=      5-min Rain = 0
KMC1 241046Z 07002KT 25/24 A2989 RMK A01 T02540241  RH  092%=      5-min Rain = 0
KMC1 241047Z 09001KT 25/24 A2989 RMK A01 T02540241  RH  092%=      5-min Rain = 0
KMC1 241048Z 09001KT 25/24 A2989 RMK A01 T02540241  RH  092%=      5-min Rain = 0
KMC1 241049Z 08002KT 25/24 A2989 RMK A01 T02540241  RH  092%=      5-min Rain = 0
KMC1 241050Z 08001KT 25/24 A2989 RMK A01 T02540241  RH  092%=      5-min Rain = 0
KMC1 241051Z 09001KT 25/24 A2989 RMK A01 T02540241  RH  092%=      5-min Rain = 0
KMC1 241052Z 08001KT 25/24 A2989 RMK A01 T02540241  RH  092%=      5-min Rain = 0
KMC1 241053Z 08001KT 25/24 A2989 RMK A01 T02540241  RH  092%=      5-min Rain = 0
KMC1 241054Z 09002KT 25/24 A2989 RMK A01 T02540241  RH  092%=      5-min Rain = 0
KMC1 241055Z 11002KT 25/24 A2989 RMK A01 T02540241  RH  092%=      5-min Rain = 0
KMC1 241056Z 11002KT 25/24 A2989 RMK A01 T02540241  RH  092%=      5-min Rain = 0
KMC1 241057Z 11002KT 25/24 A2989 RMK A01 T02540241  RH  092%=      5-min Rain = 0
KMC1 241058Z 11003KT 25/24 A2989 RMK A01 T02540241  RH  092%=      5-min Rain = 0
KMC1 241059Z 11003KT 25/24 A2989 RMK A01 T02540241  RH  093%=      5-min Rain = 0
KMC1 241100Z 11004KT 25/24 A2989 RMK A01 T02540241  RH  093%=      5-min Rain = 0
KMC1 241101Z 11004KT 25/24 A2989 RMK A01 T02530241  RH  093%=      5-min Rain = 0
KMC1 241102Z 11004KT 25/24 A2989 RMK A01 T02530240  RH  093%=      5-min Rain = 0
KMC1 241103Z 11004KT 25/24 A2989 RMK A01 T02530240  RH  093%=      5-min Rain = 0
KMC1 241104Z 11004KT 25/24 A2989 RMK A01 T02520240  RH  093%=      5-min Rain = 0
KMC1 241105Z 12004KT 25/24 A2989 RMK A01 T02520240  RH  093%=      5-min Rain = 0
KMC1 241106Z 11004KT 25/24 A2989 RMK A01 T02520240  RH  093%=      5-min Rain = 0
KMC1 241107Z 12003KT 25/24 A2989 RMK A01 T02510241  RH  094%=      5-min Rain = 0
KMC1 241108Z 12003KT 25/24 A2989 RMK A01 T02510241  RH  094%=      5-min Rain = 0
KMC1 241109Z 12003KT 25/24 A2989 RMK A01 T02510241  RH  094%=      5-min Rain = 0
KMC1 241110Z 12003KT 25/24 A2989 RMK A01 T02500240  RH  094%=      5-min Rain = 0
KMC1 241111Z 12003KT 25/24 A2989 RMK A01 T02500240  RH  094%=      5-min Rain = 0
KMC1 241112Z 12003KT 25/24 A2989 RMK A01 T02500240  RH  094%=      5-min Rain = 0
KMC1 241113Z 12003KT 25/24 A2989 RMK A01 T02500240  RH  094%=      5-min Rain = 0
KMC1 241114Z 12004KT 25/24 A2989 RMK A01 T02500240  RH  095%=      5-min Rain = 0
KMC1 241115Z 13004KT 25/24 A2989 RMK A01 T02490240  RH  095%=      5-min Rain = 0
KMC1 241116Z 13004KT 25/24 A2989 RMK A01 T02490241  RH  095%=      5-min Rain = 0
KMC1 241117Z 13004KT 25/24 A2989 RMK A01 T02490240  RH  095%=      5-min Rain = 0
KMC1 241118Z 13004KT 25/24 A2989 RMK A01 T02490241  RH  095%=      5-min Rain = 0
KMC1 241119Z 14004KT 25/24 A2989 RMK A01 T02490240  RH  095%=      5-min Rain = 0
KMC1 241120Z 14004KT 25/24 A2989 RMK A01 T02480240  RH  095%=      5-min Rain = 0
KMC1 241121Z 14004KT 25/24 A2989 RMK A01 T02480240  RH  095%=      5-min Rain = 0
KMC1 241122Z 14005KT 25/24 A2989 RMK A01 T02480240  RH  096%=      5-min Rain = 0
KMC1 241123Z 13004KT 25/24 A2989 RMK A01 T02480240  RH  096%=      5-min Rain = 0
KMC1 241124Z 14005KT 25/24 A2989 RMK A01 T02470240  RH  096%=      5-min Rain = 0
KMC1 241125Z 14004KT 25/24 A2989 RMK A01 T02470240  RH  096%=      5-min Rain = 0
KMC1 241126Z 14005KT 25/24 A2989 RMK A01 T02470240  RH  096%=      5-min Rain = 0
KMC1 241127Z 14005KT 25/24 A2989 RMK A01 T02460240  RH  096%=      5-min Rain = 0
KMC1 241128Z 13005KT 25/24 A2989 RMK A01 T02460240  RH  096%=      5-min Rain = 0
KMC1 241129Z 13004KT 25/24 A2989 RMK A01 T02460240  RH  097%=      5-min Rain = 0
KMC1 241130Z 13004KT 25/24 A2989 RMK A01 T02460240  RH  097%=      5-min Rain = 0
KMC1 241131Z 14004KT 25/24 A2989 RMK A01 T02450239  RH  097%=      5-min Rain = 0
KMC1 241132Z 14003KT 25/24 A2989 RMK A01 T02450240  RH  097%=      5-min Rain = 0
KMC1 241133Z 14003KT 25/24 A2989 RMK A01 T02450240  RH  097%=      5-min Rain = 0
KMC1 241134Z 14003KT 25/24 A2989 RMK A01 T02450239  RH  097%=      5-min Rain = 0
KMC1 241135Z 14003KT 25/24 A2989 RMK A01 T02450240  RH  097%=      5-min Rain = 0
KMC1 241136Z 14003KT 25/24 A2989 RMK A01 T02450240  RH  097%=      5-min Rain = 0
KMC1 241137Z 15003KT 25/24 A2989 RMK A01 T02450239  RH  097%=      5-min Rain = 0
KMC1 241138Z 16003KT 25/24 A2989 RMK A01 T02450239  RH  097%=      5-min Rain = 0
KMC1 241139Z 17003KT 25/24 A2989 RMK A01 T02450239  RH  097%=      5-min Rain = 0
KMC1 241140Z 17004KT 25/24 A2989 RMK A01 T02450239  RH  097%=      5-min Rain = 0
KMC1 241141Z 16004KT 25/24 A2989 RMK A01 T02450239  RH  097%=      5-min Rain = 0
KMC1 241142Z 16004KT 25/24 A2989 RMK A01 T02450239  RH  097%=      5-min Rain = 0
KMC1 241143Z 16004KT 25/24 A2989 RMK A01 T02450239  RH  097%=      5-min Rain = 0
KMC1 241144Z 16004KT 24/24 A2989 RMK A01 T02440239  RH  097%=      5-min Rain = 0
KMC1 241145Z 16004KT 24/24 A2989 RMK A01 T02440239  RH  097%=      5-min Rain = 0
KMC1 241146Z 16005KT 24/24 A2989 RMK A01 T02440239  RH  097%=      5-min Rain = 0
KMC1 241147Z 17005KT 24/24 A2989 RMK A01 T02440239  RH  097%=      5-min Rain = 0
KMC1 241148Z 17005KT 24/24 A2989 RMK A01 T02440239  RH  097%=      5-min Rain = 0
KMC1 241149Z 17005KT 24/24 A2989 RMK A01 T02440239  RH  097%=      5-min Rain = 0
KMC1 241150Z 17004KT 24/24 A2989 RMK A01 T02440239  RH  097%=      5-min Rain = 0
KMC1 241151Z 17004KT 24/24 A2989 RMK A01 T02440239  RH  097%=      5-min Rain = 0
KMC1 241152Z 17004KT 24/24 A2989 RMK A01 T02440239  RH  097%=      5-min Rain = 0
KMC1 241153Z 17005KT 25/24 A2989 RMK A01 T02450239  RH  097%=      5-min Rain = 0
KMC1 241154Z 17004KT 24/24 A2989 RMK A01 T02440239  RH  097%=      5-min Rain = 0
KMC1 241155Z 18004KT 24/24 A2989 RMK A01 T02440239  RH  097%=      5-min Rain = 0
KMC1 241156Z 18003KT 24/24 A2989 RMK A01 T02440239  RH  097%=      5-min Rain = 0
KMC1 241157Z 18003KT 24/24 A2989 RMK A01 T02440239  RH  097%=      5-min Rain = 0
KMC1 241158Z 18004KT 24/24 A2989 RMK A01 T02440239  RH  097%=      5-min Rain = 0
KMC1 241159Z 18003KT 24/24 A2989 RMK A01 T02440239  RH  097%=      5-min Rain = 0
KMC1 241200Z 18003KT 24/24 A2989 RMK A01 T02440239  RH  097%=      5-min Rain = 0
KMC1 241201Z 18003KT 24/24 A2989 RMK A01 T02440239  RH  097%=      5-min Rain = 0
KMC1 241202Z 18003KT 24/24 A2989 RMK A01 T02440239  RH  097%=      5-min Rain = 0
KMC1 241203Z 19002KT 24/24 A2989 RMK A01 T02440239  RH  097%=      5-min Rain = 0
KMC1 241204Z 18002KT 24/24 A2989 RMK A01 T02440239  RH  097%=      5-min Rain = 0
KMC1 241205Z 18002KT 24/24 A2989 RMK A01 T02440239  RH  097%=      5-min Rain = 0
KMC1 241206Z 19002KT 24/24 A2989 RMK A01 T02430238  RH  097%=      5-min Rain = 0
KMC1 241207Z 19002KT 24/24 A2989 RMK A01 T02430238  RH  097%=      5-min Rain = 0
KMC1 241208Z 18003KT 24/24 A2989 RMK A01 T02430238  RH  097%=      5-min Rain = 0
KMC1 241209Z 18003KT 24/24 A2989 RMK A01 T02420238  RH  097%=      5-min Rain = 0
KMC1 241210Z 18003KT 24/24 A2989 RMK A01 T02420238  RH  097%=      5-min Rain = 0
KMC1 241211Z 18003KT 24/24 A2989 RMK A01 T02430238  RH  097%=      5-min Rain = 0
KMC1 241212Z 18003KT 24/24 A2989 RMK A01 T02430238  RH  097%=      5-min Rain = 0
KMC1 241213Z 18003KT 24/24 A2989 RMK A01 T02430238  RH  097%=      5-min Rain = 0
KMC1 241214Z 18003KT 24/24 A2989 RMK A01 T02420238  RH  098%=      5-min Rain = 0
KMC1 241215Z 18003KT 24/24 A2989 RMK A01 T02420238  RH  098%=      5-min Rain = 0
KMC1 241216Z 18002KT 24/24 A2989 RMK A01 T02420238  RH  098%=      5-min Rain = 0
KMC1 241217Z 19002KT 24/24 A2989 RMK A01 T02420238  RH  098%=      5-min Rain = 0
KMC1 241218Z 18002KT 24/24 A299 RMK A01 T02420238  RH  098%=      5-min Rain = 0
KMC1 241219Z 19001KT 24/24 A2989 RMK A01 T02420238  RH  098%=      5-min Rain = 0
KMC1 241220Z 18002KT 24/24 A299 RMK A01 T02430238  RH  097%=      5-min Rain = 0
KMC1 241221Z 17002KT 24/24 A299 RMK A01 T02430238  RH  097%=      5-min Rain = 0
KMC1 241222Z 16002KT 24/24 A299 RMK A01 T02420238  RH  097%=      5-min Rain = 0
KMC1 241223Z 16003KT 24/24 A299 RMK A01 T02430238  RH  097%=      5-min Rain = 0
KMC1 241224Z 16002KT 24/24 A299 RMK A01 T02430238  RH  097%=      5-min Rain = 0
KMC1 241225Z 15002KT 24/24 A299 RMK A01 T02430239  RH  097%=      5-min Rain = 0
KMC1 241226Z 13001KT 24/24 A299 RMK A01 T02440239  RH  097%=      5-min Rain = 0
KMC1 241227Z 12001KT 24/24 A299 RMK A01 T02440239  RH  097%=      5-min Rain = 0
KMC1 241228Z 11001KT 25/24 A299 RMK A01 T02450240  RH  097%=      5-min Rain = 0
KMC1 241229Z 11001KT 25/24 A299 RMK A01 T02460240  RH  097%=      5-min Rain = 0
KMC1 241230Z 10000KT 25/24 A299 RMK A01 T02470240  RH  096%=      5-min Rain = 0
KMC1 241231Z 08001KT 25/24 A299 RMK A01 T02470240  RH  096%=      5-min Rain = 0
KMC1 241232Z 09000KT 25/24 A299 RMK A01 T02480240  RH  095%=      5-min Rain = 0
KMC1 241233Z 11001KT 25/24 A299 RMK A01 T02490240  RH  095%=      5-min Rain = 0
KMC1 241234Z 09001KT 25/24 A299 RMK A01 T02500240  RH  094%=      5-min Rain = 0
KMC1 241235Z 11001KT 25/24 A299 RMK A01 T02500240  RH  094%=      5-min Rain = 0
KMC1 241236Z 10000KT 25/24 A299 RMK A01 T02510241  RH  094%=      5-min Rain = 0
KMC1 241237Z 12001KT 25/24 A299 RMK A01 T02520240  RH  093%=      5-min Rain = 0
KMC1 241238Z 13002KT 25/24 A299 RMK A01 T02520240  RH  093%=      5-min Rain = 0
KMC1 241239Z 14002KT 25/24 A299 RMK A01 T02520240  RH  093%=      5-min Rain = 0
KMC1 241240Z 14002KT 25/24 A299 RMK A01 T02510240  RH  093%=      5-min Rain = 0
KMC1 241241Z 15002KT 25/24 A299 RMK A01 T02510240  RH  094%=      5-min Rain = 0
KMC1 241242Z 16003KT 25/24 A299 RMK A01 T02510240  RH  094%=      5-min Rain = 0
KMC1 241243Z 15002KT 25/24 A299 RMK A01 T02510240  RH  094%=      5-min Rain = 0
KMC1 241244Z 17002KT 25/24 A299 RMK A01 T02510241  RH  094%=      5-min Rain = 0
KMC1 241245Z 16003KT 25/24 A299 RMK A01 T02510241  RH  094%=      5-min Rain = 0
KMC1 241246Z 17003KT 25/24 A299 RMK A01 T02510241  RH  094%=      5-min Rain = 0
KMC1 241247Z 17004KT 25/24 A299 RMK A01 T02510241  RH  094%=      5-min Rain = 0
KMC1 241248Z 17004KT 25/24 A299 RMK A01 T02510241  RH  094%=      5-min Rain = 0
KMC1 241249Z 17003KT 25/24 A299 RMK A01 T02510241  RH  094%=      5-min Rain = 0
KMC1 241250Z 17005KT 25/24 A299 RMK A01 T02520241  RH  094%=      5-min Rain = 0
KMC1 241251Z 16005KT 25/24 A299 RMK A01 T02520240  RH  093%=      5-min Rain = 0
KMC1 241252Z 17004KT 25/24 A299 RMK A01 T02520241  RH  093%=      5-min Rain = 0
KMC1 241253Z 17003KT 25/24 A299 RMK A01 T02530241  RH  093%=      5-min Rain = 0
KMC1 241254Z 16003KT 25/24 A299 RMK A01 T02530241  RH  093%=      5-min Rain = 0
KMC1 241255Z 17003KT 25/24 A299 RMK A01 T02540242  RH  093%=      5-min Rain = 0
KMC1 241256Z 15002KT 25/24 A299 RMK A01 T02540242  RH  093%=      5-min Rain = 0
KMC1 241257Z 17002KT 26/24 A299 RMK A01 T02550242  RH  092%=      5-min Rain = 0
KMC1 241258Z 15004KT 26/24 A299 RMK A01 T02550241  RH  092%=      5-min Rain = 0
KMC1 241259Z 15003KT 26/24 A299 RMK A01 T02560241  RH  091%=      5-min Rain = 0
KMC1 241300Z 15003KT 26/24 A2991 RMK A01 T02570241  RH  091%=      5-min Rain = 0
KMC1 241301Z 17004KT 26/24 A2991 RMK A01 T02570241  RH  091%=      5-min Rain = 0
KMC1 241302Z 15003KT 26/24 A2991 RMK A01 T02580242  RH  091%=      5-min Rain = 0
KMC1 241303Z 15003KT 26/24 A2991 RMK A01 T02580241  RH  090%=      5-min Rain = 0
KMC1 241304Z 15002KT 26/24 A2991 RMK A01 T02590242  RH  090%=      5-min Rain = 0
KMC1 241305Z 16002KT 26/24 A2991 RMK A01 T02590242  RH  090%=      5-min Rain = 0
KMC1 241306Z 14003KT 26/24 A2991 RMK A01 T02600243  RH  090%=      5-min Rain = 0
KMC1 241307Z 13005KT 26/24 A2991 RMK A01 T02610241  RH  089%=      5-min Rain = 0
KMC1 241308Z 14005KT 26/24 A2991 RMK A01 T02620241  RH  089%=      5-min Rain = 0
KMC1 241309Z 15006KT 26/24 A2991 RMK A01 T02620241  RH  088%=      5-min Rain = 0
KMC1 241310Z 15005KT 26/24 A2991 RMK A01 T02630240  RH  088%=      5-min Rain = 0
KMC1 241311Z 16006KT 26/24 A2991 RMK A01 T02630241  RH  087%=      5-min Rain = 0
KMC1 241312Z 15006KT 26/24 A2991 RMK A01 T02640241  RH  087%=      5-min Rain = 0
KMC1 241313Z 14004KT 26/24 A2991 RMK A01 T02640241  RH  087%=      5-min Rain = 0
KMC1 241314Z 13006KT 27/24 A2991 RMK A01 T02650241  RH  087%=      5-min Rain = 0
KMC1 241315Z 14007KT 27/24 A2991 RMK A01 T02660241  RH  086%=      5-min Rain = 0
KMC1 241316Z 16004KT 27/24 A2991 RMK A01 T02650240  RH  086%=      5-min Rain = 0
KMC1 241317Z 16004KT 27/24 A2991 RMK A01 T02660241  RH  086%=      5-min Rain = 0
KMC1 241318Z 16007KT 27/24 A2991 RMK A01 T02660240  RH  085%=      5-min Rain = 0
KMC1 241319Z 15006KT 27/24 A2991 RMK A01 T02660239  RH  085%=      5-min Rain = 0
KMC1 241320Z 16006KT 27/24 A2991 RMK A01 T02660239  RH  085%=      5-min Rain = 0
KMC1 241321Z 16005KT 27/24 A2991 RMK A01 T02660238  RH  085%=      5-min Rain = 0
KMC1 241322Z 17006KT 27/24 A2991 RMK A01 T02670239  RH  085%=      5-min Rain = 0
KMC1 241323Z 16005KT 27/24 A2991 RMK A01 T02670239  RH  085%=      5-min Rain = 0
KMC1 241324Z 17006KT 27/24 A2991 RMK A01 T02670240  RH  085%=      5-min Rain = 0
KMC1 241325Z 16006KT 27/24 A2991 RMK A01 T02680239  RH  084%=      5-min Rain = 0
KMC1 241326Z 16008KT 27/24 A2991 RMK A01 T02680238  RH  084%=      5-min Rain = 0
KMC1 241327Z 16005KT 27/24 A2991 RMK A01 T02680238  RH  084%=      5-min Rain = 0
KMC1 241328Z 16005KT 27/24 A2991 RMK A01 T02680239  RH  084%=      5-min Rain = 0
KMC1 241329Z 17005KT 27/24 A2991 RMK A01 T02690240  RH  084%=      5-min Rain = 0
KMC1 241330Z 17007KT 27/24 A2991 RMK A01 T02700239  RH  083%=      5-min Rain = 0
KMC1 241331Z 17006KT 27/24 A2991 RMK A01 T02700238  RH  082%=      5-min Rain = 0
KMC1 241332Z 16006KT 27/24 A2991 RMK A01 T02700238  RH  083%=      5-min Rain = 0
KMC1 241333Z 16005KT 27/24 A2991 RMK A01 T02700238  RH  083%=      5-min Rain = 0
KMC1 241334Z 16004KT 27/24 A2991 RMK A01 T02700238  RH  083%=      5-min Rain = 0
KMC1 241335Z 15006KT 27/24 A2991 RMK A01 T02710239  RH  083%=      5-min Rain = 0
KMC1 241336Z 16005KT 27/24 A2992 RMK A01 T02710238  RH  082%=      5-min Rain = 0
KMC1 241337Z 14009KT 27/24 A2992 RMK A01 T02700238  RH  082%=      5-min Rain = 0
KMC1 241338Z 15005KT 27/24 A2992 RMK A01 T02700237  RH  082%=      5-min Rain = 0
KMC1 241339Z 16005KT 27/24 A2992 RMK A01 T02680235  RH  082%=      5-min Rain = 0
KMC1 241340Z 16008KT 27/23 A2992 RMK A01 T02670234  RH  082%=      5-min Rain = 0
KMC1 241341Z 16008KT 27/23 A2992 RMK A01 T02660233  RH  082%=      5-min Rain = 0
KMC1 241342Z 16005KT 27/23 A2992 RMK A01 T02650233  RH  083%=      5-min Rain = 0
KMC1 241343Z 16007KT 26/23 A2992 RMK A01 T02640233  RH  083%=      5-min Rain = 0
KMC1 241344Z 16006KT 26/23 A2992 RMK A01 T02630233  RH  084%=      5-min Rain = 0
KMC1 241345Z 16006KT 26/23 A2992 RMK A01 T02630233  RH  084%=      5-min Rain = 0
KMC1 241346Z 15004KT 26/23 A2992 RMK A01 T02620233  RH  084%=      5-min Rain = 0
KMC1 241347Z 15006KT 26/23 A2992 RMK A01 T02620233  RH  084%=      5-min Rain = 0
KMC1 241348Z 15007KT 26/23 A2992 RMK A01 T02620232  RH  083%=      5-min Rain = 0
KMC1 241349Z 17004KT 26/23 A2992 RMK A01 T02630232  RH  083%=      5-min Rain = 0
KMC1 241350Z 16007KT 26/23 A2992 RMK A01 T02630233  RH  083%=      5-min Rain = 0
KMC1 241351Z 17004KT 27/23 A2992 RMK A01 T02650232  RH  082%=      5-min Rain = 0
KMC1 241352Z 18008KT 27/23 A2992 RMK A01 T02660233  RH  082%=      5-min Rain = 0
KMC1 241353Z 17008KT 27/23 A2992 RMK A01 T02670233  RH  082%=      5-min Rain = 0
KMC1 241354Z 17008KT 27/23 A2992 RMK A01 T02670232  RH  081%=      5-min Rain = 0
KMC1 241355Z 17006KT 27/23 A2992 RMK A01 T02670232  RH  081%=      5-min Rain = 0
KMC1 241356Z 17007KT 27/23 A2992 RMK A01 T02670232  RH  081%=      5-min Rain = 0
KMC1 241357Z 17005KT 27/23 A2992 RMK A01 T02680234  RH  081%=      5-min Rain = 0
KMC1 241358Z 17007KT 27/23 A2993 RMK A01 T02700233  RH  080%=      5-min Rain = 0
KMC1 241359Z 16007KT 27/23 A2993 RMK A01 T02710234  RH  080%=      5-min Rain = 0
KMC1 241400Z 16004KT 27/23 A2993 RMK A01 T02710234  RH  080%=      5-min Rain = 0
KMC1 241401Z 16005KT 27/24 A2993 RMK A01 T02730235  RH  080%=      5-min Rain = 0
KMC1 241402Z 18006KT 27/23 A2993 RMK A01 T02740233  RH  078%=      5-min Rain = 0
KMC1 241403Z 17006KT 27/23 A2993 RMK A01 T02740232  RH  078%=      5-min Rain = 0
KMC1 241404Z 17007KT 28/23 A2993 RMK A01 T02750232  RH  078%=      5-min Rain = 0
KMC1 241405Z 17008KT 28/23 A2993 RMK A01 T02750233  RH  078%=      5-min Rain = 0
KMC1 241406Z 17006KT 28/23 A2993 RMK A01 T02750233  RH  078%=      5-min Rain = 0
KMC1 241407Z 16006KT 28/23 A2993 RMK A01 T02750233  RH  078%=      5-min Rain = 0
KMC1 241408Z 16008KT 28/23 A2993 RMK A01 T02760232  RH  077%=      5-min Rain = 0
KMC1 241409Z 17007KT 28/23 A2993 RMK A01 T02770232  RH  077%=      5-min Rain = 0
KMC1 241410Z 14006KT 28/23 A2993 RMK A01 T02780231  RH  076%=      5-min Rain = 0
KMC1 241411Z 16006KT 28/23 A2993 RMK A01 T02780231  RH  075%=      5-min Rain = 0
KMC1 241412Z 16005KT 28/23 A2993 RMK A01 T02800232  RH  075%=      5-min Rain = 0
KMC1 241413Z 16005KT 28/23 A2993 RMK A01 T02800232  RH  075%=      5-min Rain = 0
KMC1 241414Z 16006KT 28/23 A2993 RMK A01 T02810232  RH  075%=      5-min Rain = 0
KMC1 241415Z 15007KT 28/23 A2993 RMK A01 T02810231  RH  074%=      5-min Rain = 0
KMC1 241416Z 16007KT 28/23 A2993 RMK A01 T02820229  RH  073%=      5-min Rain = 0
KMC1 241417Z 15004KT 28/23 A2993 RMK A01 T02820230  RH  073%=      5-min Rain = 0
KMC1 241418Z 15004KT 28/23 A2993 RMK A01 T02830231  RH  073%=      5-min Rain = 0
KMC1 241419Z 15004G9KT 29/23 A2993 RMK A01 T02850234  RH  074%=      5-min Rain = 0
KMC1 241420Z 17006KT 29/23 A2993 RMK A01 T02860232  RH  073%=      5-min Rain = 0
KMC1 241421Z 15004KT 29/23 A2994 RMK A01 T02870231  RH  072%=      5-min Rain = 0
KMC1 241422Z 13005KT 29/23 A2994 RMK A01 T02860232  RH  073%=      5-min Rain = 0
KMC1 241423Z 13007KT 29/23 A2994 RMK A01 T02870230  RH  072%=      5-min Rain = 0
KMC1 241424Z 14006KT 29/23 A2994 RMK A01 T02870230  RH  071%=      5-min Rain = 0
KMC1 241425Z 15007KT 29/23 A2994 RMK A01 T02870231  RH  072%=      5-min Rain = 0
KMC1 241426Z 14006KT 29/23 A2994 RMK A01 T02870230  RH  071%=      5-min Rain = 0
KMC1 241427Z 12006KT 29/23 A2994 RMK A01 T02870230  RH  071%=      5-min Rain = 0
KMC1 241428Z 12004KT 29/23 A2995 RMK A01 T02870231  RH  072%=      5-min Rain = 0
KMC1 241429Z 10007KT 29/23 A2995 RMK A01 T02870231  RH  072%=      5-min Rain = 0
KMC1 241430Z 11007KT 29/23 A2995 RMK A01 T02870229  RH  071%=      5-min Rain = 0
KMC1 241431Z 11004KT 29/23 A2995 RMK A01 T02860227  RH  070%=      5-min Rain = 0
KMC1 241432Z 11006KT 28/23 A2995 RMK A01 T02840227  RH  071%=      5-min Rain = 0
KMC1 241433Z 10005KT 28/23 A2995 RMK A01 T02810226  RH  072%=      5-min Rain = 0
KMC1 241434Z 09003KT 28/23 A2996 RMK A01 T02800226  RH  072%=      5-min Rain = 0
KMC1 241435Z 12006KT 28/23 A2996 RMK A01 T02790227  RH  073%=      5-min Rain = 0
KMC1 241436Z 12005KT 28/23 A2996 RMK A01 T02800226  RH  072%=      5-min Rain = 0
KMC1 241437Z 11004KT 28/22 A2996 RMK A01 T02800224  RH  072%=      5-min Rain = 0
KMC1 241438Z 15002KT 28/22 A2996 RMK A01 T02790224  RH  072%=      5-min Rain = 0
KMC1 241439Z 15001KT 28/23 A2996 RMK A01 T02790226  RH  073%=      5-min Rain = 0
KMC1 241440Z 04001KT 28/23 A2996 RMK A01 T02790226  RH  073%=      5-min Rain = 0
KMC1 241441Z 01001KT 28/23 A2996 RMK A01 T02790227  RH  073%=      5-min Rain = 0
KMC1 241442Z 08003KT 28/23 A2996 RMK A01 T02790227  RH  073%=      5-min Rain = 0
KMC1 241443Z 09007KT 28/23 A2996 RMK A01 T02790229  RH  074%=      5-min Rain = 0
KMC1 241444Z 10006KT 28/23 A2996 RMK A01 T02790227  RH  074%=      5-min Rain = 0
KMC1 241445Z 07003KT 28/23 A2996 RMK A01 T02790229  RH  074%=      5-min Rain = 0
KMC1 241446Z 10004KT 28/23 A2996 RMK A01 T02790229  RH  075%=      5-min Rain = 0
KMC1 241447Z 09005KT 28/23 A2996 RMK A01 T02790229  RH  074%=      5-min Rain = 0
KMC1 241448Z 09005KT 28/23 A2996 RMK A01 T02800229  RH  074%=      5-min Rain = 0
KMC1 241449Z 11006KT 28/23 A2996 RMK A01 T02800229  RH  074%=      5-min Rain = 0
KMC1 241450Z 10004KT 28/23 A2996 RMK A01 T02800228  RH  073%=      5-min Rain = 0
KMC1 241451Z 09004KT 28/23 A2996 RMK A01 T02810229  RH  073%=      5-min Rain = 0
KMC1 241452Z 13004KT 28/23 A2996 RMK A01 T02840229  RH  072%=      5-min Rain = 0
KMC1 241453Z 12005KT 29/23 A2996 RMK A01 T02860229  RH  071%=      5-min Rain = 0
KMC1 241454Z 11005KT 29/23 A2996 RMK A01 T02870228  RH  070%=      5-min Rain = 0
KMC1 241455Z 14006G11KT 29/23 A2996 RMK A01 T02880230  RH  071%=      5-min Rain = 0
KMC1 241456Z 12009KT 29/23 A2995 RMK A01 T02900229  RH  070%=      5-min Rain = 0
KMC1 241457Z 12007KT 29/23 A2996 RMK A01 T02910227  RH  068%=      5-min Rain = 0
KMC1 241458Z 12007KT 29/23 A2996 RMK A01 T02920227  RH  068%=      5-min Rain = 0
KMC1 241459Z 12006KT 29/23 A2996 RMK A01 T02910226  RH  068%=      5-min Rain = 0
KMC1 241500Z 14007KT 29/23 A2996 RMK A01 T02900229  RH  069%=      5-min Rain = 0
KMC1 241501Z 12005KT 29/23 A2996 RMK A01 T02900229  RH  070%=      5-min Rain = 0
KMC1 241502Z 11005KT 29/23 A2995 RMK A01 T02920231  RH  070%=      5-min Rain = 0
KMC1 241503Z 12006KT 29/23 A2996 RMK A01 T02930230  RH  069%=      5-min Rain = 0
KMC1 241504Z 09005KT 29/23 A2996 RMK A01 T02940233  RH  069%=      5-min Rain = 0
KMC1 241505Z 09005KT 30/23 A2996 RMK A01 T02960230  RH  067%=      5-min Rain = 0
KMC1 241506Z 11005KT 30/23 A2996 RMK A01 T02970230  RH  067%=      5-min Rain = 0
KMC1 241507Z 12005KT 30/23 A2996 RMK A01 T02970228  RH  066%=      5-min Rain = 0
KMC1 241508Z 10004KT 30/23 A2996 RMK A01 T02960231  RH  068%=      5-min Rain = 0
KMC1 241509Z 12008KT 30/23 A2996 RMK A01 T02970228  RH  066%=      5-min Rain = 0
KMC1 241510Z 10008KT 30/23 A2996 RMK A01 T02970228  RH  066%=      5-min Rain = 0
KMC1 241511Z 09005KT 30/23 A2996 RMK A01 T02980229  RH  066%=      5-min Rain = 0
KMC1 241512Z 10007KT 30/23 A2996 RMK A01 T02990227  RH  065%=      5-min Rain = 0
KMC1 241513Z 10007KT 30/23 A2996 RMK A01 T02990227  RH  065%=      5-min Rain = 0
KMC1 241514Z 09006KT 30/23 A2996 RMK A01 T02990227  RH  065%=      5-min Rain = 0
KMC1 241515Z 07006KT 30/23 A2996 RMK A01 T02980229  RH  066%=      5-min Rain = 0
KMC1 241516Z 07004KT 30/23 A2996 RMK A01 T02990230  RH  067%=      5-min Rain = 0
KMC1 241517Z 07007KT 30/23 A2996 RMK A01 T02990230  RH  067%=      5-min Rain = 0
KMC1 241518Z 07004KT 30/23 A2996 RMK A01 T02990232  RH  067%=      5-min Rain = 0
KMC1 241519Z 09008KT 30/23 A2996 RMK A01 T02980233  RH  068%=      5-min Rain = 0
KMC1 241520Z 09005KT 30/23 A2995 RMK A01 T02970232  RH  068%=      5-min Rain = 0
KMC1 241521Z 10005KT 30/23 A2995 RMK A01 T02960234  RH  069%=      5-min Rain = 0
KMC1 241522Z 10006KT 30/23 A2995 RMK A01 T02990234  RH  068%=      5-min Rain = 0
KMC1 241523Z 10006KT 30/24 A2995 RMK A01 T03010235  RH  068%=      5-min Rain = 0
KMC1 241524Z 11009KT 30/23 A2995 RMK A01 T03030232  RH  066%=      5-min Rain = 0
KMC1 241525Z 11007KT 30/23 A2995 RMK A01 T03020232  RH  066%=      5-min Rain = 0
KMC1 241526Z 12006KT 30/23 A2995 RMK A01 T03020232  RH  066%=      5-min Rain = 0
KMC1 241527Z 10010KT 30/23 A2995 RMK A01 T03020231  RH  066%=      5-min Rain = 0
KMC1 241528Z 10007KT 30/23 A2995 RMK A01 T03010231  RH  066%=      5-min Rain = 0
KMC1 241529Z 10006KT 30/23 A2995 RMK A01 T03000230  RH  066%=      5-min Rain = 0
KMC1 241530Z 09008KT 30/23 A2995 RMK A01 T03000231  RH  066%=      5-min Rain = 0
KMC1 241531Z 09005KT 30/23 A2995 RMK A01 T03010231  RH  066%=      5-min Rain = 0
KMC1 241532Z 11007KT 30/23 A2995 RMK A01 T03020233  RH  067%=      5-min Rain = 0
KMC1 241533Z 09009KT 30/23 A2995 RMK A01 T03040233  RH  066%=      5-min Rain = 0
KMC1 241534Z 11007KT 31/23 A2995 RMK A01 T03050230  RH  064%=      5-min Rain = 0
KMC1 241535Z 11005KT 30/23 A2995 RMK A01 T03030230  RH  065%=      5-min Rain = 0
KMC1 241536Z 13005G10KT 30/23 A2995 RMK A01 T03020231  RH  066%=      5-min Rain = 0
KMC1 241537Z 13006KT 30/23 A2995 RMK A01 T03040232  RH  065%=      5-min Rain = 0
KMC1 241538Z 14007KT 31/23 A2995 RMK A01 T03070232  RH  064%=      5-min Rain = 0
KMC1 241539Z 12006KT 31/23 A2995 RMK A01 T03070233  RH  065%=      5-min Rain = 0
KMC1 241540Z 14003KT 31/23 A2995 RMK A01 T03070233  RH  064%=      5-min Rain = 0
KMC1 241541Z 08006KT 31/23 A2995 RMK A01 T03080231  RH  064%=      5-min Rain = 0
KMC1 241542Z 10003KT 31/23 A2995 RMK A01 T03080232  RH  064%=      5-min Rain = 0
KMC1 241543Z 11008KT 31/23 A2995 RMK A01 T03070229  RH  063%=      5-min Rain = 0
KMC1 241544Z 12008KT 31/23 A2995 RMK A01 T03060227  RH  063%=      5-min Rain = 0
KMC1 241545Z 12006KT 30/22 A2995 RMK A01 T03030224  RH  063%=      5-min Rain = 0
KMC1 241546Z 12006KT 30/22 A2995 RMK A01 T03000221  RH  063%=      5-min Rain = 0
KMC1 241547Z 12006KT 30/22 A2995 RMK A01 T02960222  RH  065%=      5-min Rain = 0
KMC1 241548Z 13004KT 29/22 A2995 RMK A01 T02920222  RH  066%=      5-min Rain = 0
KMC1 241549Z 12004KT 29/22 A2995 RMK A01 T02910222  RH  066%=      5-min Rain = 0
KMC1 241550Z 12003KT 29/22 A2995 RMK A01 T02900224  RH  067%=      5-min Rain = 0
KMC1 241551Z 12005KT 29/23 A2995 RMK A01 T02930228  RH  068%=      5-min Rain = 0
KMC1 241552Z 13007KT 30/22 A2995 RMK A01 T02990224  RH  064%=      5-min Rain = 0
KMC1 241553Z 13004KT 30/22 A2995 RMK A01 T03010222  RH  063%=      5-min Rain = 0
KMC1 241554Z 13004KT 30/23 A2995 RMK A01 T03030227  RH  064%=      5-min Rain = 0
KMC1 241555Z 10006KT 31/22 A2995 RMK A01 T03060224  RH  062%=      5-min Rain = 0
KMC1 241556Z 12004G10KT 31/23 A2995 RMK A01 T03080226  RH  062%=      5-min Rain = 0
KMC1 241557Z 13007KT 31/23 A2995 RMK A01 T03080225  RH  061%=      5-min Rain = 0
KMC1 241558Z 14009KT 31/23 A2995 RMK A01 T03070227  RH  062%=      5-min Rain = 0
KMC1 241559Z 15007KT 31/22 A2995 RMK A01 T03060224  RH  061%=      5-min Rain = 0
KMC1 241600Z 14006KT 31/22 A2995 RMK A01 T03060223  RH  061%=      5-min Rain = 0
KMC1 241601Z 12004KT 31/22 A2995 RMK A01 T03050223  RH  062%=      5-min Rain = 0
KMC1 241602Z 11006KT 30/22 A2995 RMK A01 T03040224  RH  063%=      5-min Rain = 0
KMC1 241603Z 12006KT 30/22 A2995 RMK A01 T03040224  RH  062%=      5-min Rain = 0
KMC1 241604Z 13005KT 30/22 A2995 RMK A01 T03040224  RH  062%=      5-min Rain = 0
KMC1 241605Z 17006KT 31/22 A2995 RMK A01 T03050223  RH  062%=      5-min Rain = 0
KMC1 241606Z 17007KT 30/22 A2995 RMK A01 T03040220  RH  061%=      5-min Rain = 0
KMC1 241607Z 16006KT 30/22 A2995 RMK A01 T03020222  RH  062%=      5-min Rain = 0
KMC1 241608Z 14008KT 30/22 A2995 RMK A01 T03010222  RH  063%=      5-min Rain = 0
KMC1 241609Z 15005KT 30/22 A2995 RMK A01 T03010222  RH  063%=      5-min Rain = 0
KMC1 241610Z 15005KT 30/22 A2995 RMK A01 T03020221  RH  062%=      5-min Rain = 0
KMC1 241611Z 14004KT 30/22 A2995 RMK A01 T03030218  RH  061%=      5-min Rain = 0
KMC1 241612Z 14005KT 30/22 A2995 RMK A01 T03010220  RH  062%=      5-min Rain = 0
KMC1 241613Z 14005KT 30/22 A2995 RMK A01 T03000223  RH  063%=      5-min Rain = 0
KMC1 241614Z 10008KT 30/23 A2995 RMK A01 T03010225  RH  064%=      5-min Rain = 0
KMC1 241615Z 13006KT 30/23 A2995 RMK A01 T03040226  RH  063%=      5-min Rain = 0
KMC1 241616Z 14007KT 31/22 A2995 RMK A01 T03070224  RH  061%=      5-min Rain = 0
KMC1 241617Z 13005KT 31/22 A2995 RMK A01 T03070222  RH  061%=      5-min Rain = 0
KMC1 241618Z 17002KT 31/22 A2995 RMK A01 T03050220  RH  061%=      5-min Rain = 0
KMC1 241619Z 12004KT 30/22 A2995 RMK A01 T03030222  RH  062%=      5-min Rain = 0
KMC1 241620Z 12005KT 30/22 A2995 RMK A01 T03030222  RH  062%=      5-min Rain = 0
KMC1 241621Z 13005KT 30/22 A2995 RMK A01 T03010223  RH  063%=      5-min Rain = 0
KMC1 241622Z 12005KT 30/23 A2995 RMK A01 T03020225  RH  063%=      5-min Rain = 0
KMC1 241623Z 11006KT 31/23 A2995 RMK A01 T03070226  RH  062%=      5-min Rain = 0
KMC1 241624Z 11006KT 31/23 A2995 RMK A01 T03100226  RH  061%=      5-min Rain = 0
KMC1 241625Z 10007KT 31/22 A2995 RMK A01 T03120224  RH  060%=      5-min Rain = 0
KMC1 241626Z 14005KT 31/22 A2995 RMK A01 T03090224  RH  061%=      5-min Rain = 0
KMC1 241627Z 14004KT 31/22 A2995 RMK A01 T03060222  RH  061%=      5-min Rain = 0
KMC1 241628Z 14005KT 31/22 A2995 RMK A01 T03050224  RH  062%=      5-min Rain = 0
KMC1 241629Z 15004KT 31/22 A2995 RMK A01 T03070223  RH  061%=      5-min Rain = 0
KMC1 241630Z 14003KT 31/22 A2995 RMK A01 T03080222  RH  060%=      5-min Rain = 0
KMC1 241631Z 12004KT 31/22 A2995 RMK A01 T03060221  RH  061%=      5-min Rain = 0
KMC1 241632Z 12003KT 30/22 A2995 RMK A01 T03040222  RH  062%=      5-min Rain = 0
KMC1 241633Z 13005KT 30/22 A2995 RMK A01 T03040221  RH  061%=      5-min Rain = 0
KMC1 241634Z 10007KT 31/22 A2995 RMK A01 T03050221  RH  061%=      5-min Rain = 0
KMC1 241635Z 12007KT 31/22 A2994 RMK A01 T03080222  RH  060%=      5-min Rain = 0
KMC1 241636Z 13007KT 31/22 A2994 RMK A01 T03100222  RH  060%=      5-min Rain = 0
KMC1 241637Z 13006KT 31/22 A2994 RMK A01 T03120223  RH  059%=      5-min Rain = 0
KMC1 241638Z 13009KT 31/22 A2994 RMK A01 T03140221  RH  058%=      5-min Rain = 0
KMC1 241639Z 13009KT 31/22 A2994 RMK A01 T03120219  RH  058%=      5-min Rain = 0
KMC1 241640Z 13007KT 31/22 A2994 RMK A01 T03100220  RH  059%=      5-min Rain = 0
KMC1 241641Z 15004KT 31/22 A2995 RMK A01 T03090218  RH  059%=      5-min Rain = 0
KMC1 241642Z 17008KT 31/22 A2994 RMK A01 T03080217  RH  058%=      5-min Rain = 0
KMC1 241643Z 17008KT 31/22 A2994 RMK A01 T03080218  RH  059%=      5-min Rain = 0
KMC1 241644Z 15008KT 31/22 A2994 RMK A01 T03100219  RH  058%=      5-min Rain = 0
KMC1 241645Z 16008KT 31/22 A2994 RMK A01 T03110221  RH  059%=      5-min Rain = 0
KMC1 241646Z 16008KT 31/22 A2994 RMK A01 T03100220  RH  059%=      5-min Rain = 0
KMC1 241647Z 16008KT 31/22 A2994 RMK A01 T03080220  RH  060%=      5-min Rain = 0
KMC1 241648Z 18005KT 31/22 A2995 RMK A01 T03060221  RH  060%=      5-min Rain = 0
KMC1 241649Z 13007KT 31/22 A2995 RMK A01 T03060221  RH  061%=      5-min Rain = 0
KMC1 241650Z 13008KT 31/22 A2995 RMK A01 T03090219  RH  059%=      5-min Rain = 0
KMC1 241651Z 15006KT 31/22 A2995 RMK A01 T03090218  RH  058%=      5-min Rain = 0
KMC1 241652Z 14004KT 31/22 A2995 RMK A01 T03090216  RH  058%=      5-min Rain = 0
KMC1 241653Z 10004KT 31/22 A2995 RMK A01 T03100222  RH  060%=      5-min Rain = 0
KMC1 241654Z 14005KT 31/22 A2995 RMK A01 T03120219  RH  058%=      5-min Rain = 0
KMC1 241655Z 13008KT 31/22 A2995 RMK A01 T03130220  RH  058%=      5-min Rain = 0
KMC1 241656Z 12007KT 31/22 A2995 RMK A01 T03130218  RH  057%=      5-min Rain = 0
KMC1 241657Z 13004KT 31/22 A2995 RMK A01 T03110220  RH  058%=      5-min Rain = 0
KMC1 241658Z 14006G12KT 31/22 A2995 RMK A01 T03120221  RH  058%=      5-min Rain = 0
KMC1 241659Z 11009KT 31/22 A2995 RMK A01 T03140219  RH  057%=      5-min Rain = 0
KMC1 241700Z 10008KT 31/22 A2994 RMK A01 T03140220  RH  057%=      5-min Rain = 0
KMC1 241701Z 12009KT 31/22 A2995 RMK A01 T03130220  RH  058%=      5-min Rain = 0
KMC1 241702Z 12006KT 31/22 A2995 RMK A01 T03140222  RH  058%=      5-min Rain = 0
KMC1 241703Z 13007KT 32/22 A2995 RMK A01 T03160221  RH  057%=      5-min Rain = 0
KMC1 241704Z 15005KT 31/22 A2995 RMK A01 T03130219  RH  057%=      5-min Rain = 0
KMC1 241705Z 14004KT 31/22 A2995 RMK A01 T03100219  RH  058%=      5-min Rain = 0
KMC1 241706Z 15004KT 31/22 A2995 RMK A01 T03090216  RH  058%=      5-min Rain = 0
KMC1 241707Z 14005KT 31/22 A2994 RMK A01 T03060217  RH  059%=      5-min Rain = 0
KMC1 241708Z 12004KT 31/22 A2994 RMK A01 T03070221  RH  060%=      5-min Rain = 0
KMC1 241709Z 15007KT 31/22 A2994 RMK A01 T03100222  RH  060%=      5-min Rain = 0
KMC1 241710Z 18009KT 31/22 A2994 RMK A01 T03140221  RH  058%=      5-min Rain = 0
KMC1 241711Z 17007KT 32/22 A2994 RMK A01 T03150220  RH  057%=      5-min Rain = 0
KMC1 241712Z 14007KT 31/22 A2995 RMK A01 T03140220  RH  057%=      5-min Rain = 0
KMC1 241713Z 13005KT 31/22 A2995 RMK A01 T03140216  RH  056%=      5-min Rain = 0
KMC1 241714Z 14006KT 31/22 A2994 RMK A01 T03130218  RH  057%=      5-min Rain = 0
KMC1 241715Z 12008KT 31/22 A2994 RMK A01 T03140221  RH  058%=      5-min Rain = 0
KMC1 241716Z 12010KT 32/22 A2994 RMK A01 T03160221  RH  057%=      5-min Rain = 0
KMC1 241717Z 11009KT 32/22 A2995 RMK A01 T03160217  RH  056%=      5-min Rain = 0
KMC1 241718Z 13006KT 31/22 A2994 RMK A01 T03120216  RH  057%=      5-min Rain = 0
KMC1 241719Z 09007KT 31/22 A2994 RMK A01 T03100216  RH  057%=      5-min Rain = 0
KMC1 241720Z 09006KT 31/22 A2994 RMK A01 T03100218  RH  058%=      5-min Rain = 0
KMC1 241721Z 13005KT 31/22 A2994 RMK A01 T03120219  RH  058%=      5-min Rain = 0
KMC1 241722Z 13004KT 31/22 A2994 RMK A01 T03140218  RH  057%=      5-min Rain = 0
KMC1 241723Z 11004KT 32/22 A2994 RMK A01 T03150222  RH  058%=      5-min Rain = 0
KMC1 241724Z 10007KT 32/22 A2994 RMK A01 T03170222  RH  057%=      5-min Rain = 0
KMC1 241725Z 11009KT 32/22 A2994 RMK A01 T03190223  RH  057%=      5-min Rain = 0
KMC1 241726Z 11008KT 32/22 A2994 RMK A01 T03200222  RH  056%=      5-min Rain = 0
KMC1 241727Z 14006KT 32/22 A2994 RMK A01 T03200221  RH  056%=      5-min Rain = 0
KMC1 241728Z 15008KT 32/22 A2994 RMK A01 T03200223  RH  056%=      5-min Rain = 0
KMC1 241729Z 15008KT 32/22 A2994 RMK A01 T03220220  RH  055%=      5-min Rain = 0
KMC1 241730Z 14006KT 32/22 A2994 RMK A01 T03230220  RH  055%=      5-min Rain = 0
KMC1 241731Z 12009KT 32/22 A2994 RMK A01 T03230221  RH  055%=      5-min Rain = 0
KMC1 241732Z 13007KT 32/22 A2994 RMK A01 T03220218  RH  054%=      5-min Rain = 0
KMC1 241733Z 14006KT 32/22 A2994 RMK A01 T03190218  RH  055%=      5-min Rain = 0
KMC1 241734Z 14006KT 32/22 A2994 RMK A01 T03170217  RH  056%=      5-min Rain = 0
KMC1 241735Z 14003KT 32/22 A2994 RMK A01 T03160218  RH  056%=      5-min Rain = 0
KMC1 241736Z 16008KT 32/22 A2994 RMK A01 T03170220  RH  057%=      5-min Rain = 0
KMC1 241737Z 16007KT 32/22 A2994 RMK A01 T03180219  RH  056%=      5-min Rain = 0
KMC1 241738Z 13007G12KT 32/22 A2994 RMK A01 T03200223  RH  056%=      5-min Rain = 0
KMC1 241739Z 13006KT 32/22 A2994 RMK A01 T03230219  RH  054%=      5-min Rain = 0
KMC1 241740Z 10005KT 32/22 A2994 RMK A01 T03200221  RH  056%=      5-min Rain = 0
KMC1 241741Z 11004KT 32/22 A2994 RMK A01 T03190220  RH  056%=      5-min Rain = 0
KMC1 241742Z 10005KT 32/22 A2994 RMK A01 T03180220  RH  056%=      5-min Rain = 0
KMC1 241743Z 12012KT 32/22 A2994 RMK A01 T03160220  RH  057%=      5-min Rain = 0
KMC1 241744Z 12009KT 31/22 A2994 RMK A01 T03130218  RH  057%=      5-min Rain = 0
KMC1 241745Z 12006KT 31/22 A2994 RMK A01 T03100218  RH  058%=      5-min Rain = 0
KMC1 241746Z 10005KT 31/22 A2994 RMK A01 T03110221  RH  059%=      5-min Rain = 0
KMC1 241747Z 10004KT 32/22 A2994 RMK A01 T03160223  RH  058%=      5-min Rain = 0
KMC1 241748Z 09004KT 32/22 A2994 RMK A01 T03200223  RH  056%=      5-min Rain = 0
KMC1 241749Z 11007KT 32/22 A2994 RMK A01 T03230223  RH  056%=      5-min Rain = 0
KMC1 241750Z 11009KT 32/22 A2994 RMK A01 T03240219  RH  054%=      5-min Rain = 0
KMC1 241751Z 11005KT 32/22 A2994 RMK A01 T03220218  RH  054%=      5-min Rain = 0
KMC1 241752Z 12005KT 32/22 A2994 RMK A01 T03210218  RH  055%=      5-min Rain = 0
KMC1 241753Z 12008KT 32/22 A2994 RMK A01 T03230222  RH  055%=      5-min Rain = 0
KMC1 241754Z 11009KT 33/22 A2994 RMK A01 T03250220  RH  054%=      5-min Rain = 0
KMC1 241755Z 11008G13KT 32/22 A2994 RMK A01 T03240220  RH  054%=      5-min Rain = 0
KMC1 241756Z 10008KT 32/22 A2994 RMK A01 T03220220  RH  055%=      5-min Rain = 0
KMC1 241757Z 09007KT 32/22 A2994 RMK A01 T03210222  RH  056%=      5-min Rain = 0
KMC1 241758Z 10010KT 32/22 A2994 RMK A01 T03230220  RH  055%=      5-min Rain = 0
KMC1 241759Z 11008KT 32/22 A2994 RMK A01 T03240220  RH  054%=      5-min Rain = 0
KMC1 241800Z 12006KT 32/22 A2994 RMK A01 T03230221  RH  055%=      5-min Rain = 0
KMC1 241801Z 11009KT 33/22 A2994 RMK A01 T03250222  RH  055%=      5-min Rain = 0
KMC1 241802Z 10007KT 33/22 A2994 RMK A01 T03270217  RH  053%=      5-min Rain = 0
KMC1 241803Z 12008G13KT 32/22 A2994 RMK A01 T03240219  RH  054%=      5-min Rain = 0
KMC1 241804Z 12010KT 32/22 A2994 RMK A01 T03240217  RH  053%=      5-min Rain = 0
KMC1 241805Z 13010G15KT 32/22 A2994 RMK A01 T03230218  RH  054%=      5-min Rain = 0
KMC1 241806Z 13007KT 32/22 A2994 RMK A01 T03220215  RH  053%=      5-min Rain = 0
KMC1 241807Z 12010KT 32/22 A2994 RMK A01 T03200218  RH  055%=      5-min Rain = 0
KMC1 241808Z 12007KT 32/22 A2994 RMK A01 T03220216  RH  054%=      5-min Rain = 0
KMC1 241809Z 14008KT 32/22 A2994 RMK A01 T03210216  RH  054%=      5-min Rain = 0
KMC1 241810Z 12006KT 32/22 A2994 RMK A01 T03210216  RH  054%=      5-min Rain = 0
KMC1 241811Z 11008G13KT 32/22 A2994 RMK A01 T03220217  RH  054%=      5-min Rain = 0
KMC1 241812Z 12010KT 32/22 A2994 RMK A01 T03230217  RH  054%=      5-min Rain = 0
KMC1 241813Z 12008KT 32/22 A2994 RMK A01 T03230217  RH  053%=      5-min Rain = 0
KMC1 241814Z 11006KT 32/22 A2994 RMK A01 T03230217  RH  054%=      5-min Rain = 0
KMC1 241815Z 12004KT 32/22 A2994 RMK A01 T03220215  RH  053%=      5-min Rain = 0
KMC1 241816Z 11005KT 32/22 A2994 RMK A01 T03200216  RH  054%=      5-min Rain = 0
KMC1 241817Z 12008G14KT 32/22 A2994 RMK A01 T03180216  RH  055%=      5-min Rain = 0
KMC1 241818Z 13008KT 32/22 A2993 RMK A01 T03180215  RH  054%=      5-min Rain = 0
KMC1 241819Z 14007KT 32/22 A2994 RMK A01 T03190218  RH  055%=      5-min Rain = 0
KMC1 241820Z 14007KT 32/22 A2993 RMK A01 T03240216  RH  053%=      5-min Rain = 0
KMC1 241821Z 13007KT 33/22 A2993 RMK A01 T03250217  RH  053%=      5-min Rain = 0
KMC1 241822Z 15005KT 33/22 A2993 RMK A01 T03260217  RH  052%=      5-min Rain = 0
KMC1 241823Z 14007G12KT 33/22 A2994 RMK A01 T03260218  RH  053%=      5-min Rain = 0
KMC1 241824Z 14009KT 32/22 A2994 RMK A01 T03240217  RH  053%=      5-min Rain = 0
KMC1 241825Z 15008KT 32/22 A2993 RMK A01 T03230217  RH  054%=      5-min Rain = 0
KMC1 241826Z 13006G11KT 32/22 A2993 RMK A01 T03230220  RH  054%=      5-min Rain = 0
KMC1 241827Z 14009KT 33/22 A2993 RMK A01 T03270219  RH  053%=      5-min Rain = 0
KMC1 241828Z 14005KT 33/22 A2993 RMK A01 T03290218  RH  052%=      5-min Rain = 0
KMC1 241829Z 09004KT 33/22 A2993 RMK A01 T03290221  RH  053%=      5-min Rain = 0
KMC1 241830Z 11003KT 33/22 A2993 RMK A01 T03300217  RH  052%=      5-min Rain = 0
KMC1 241831Z 14003KT 33/22 A2993 RMK A01 T03290218  RH  052%=      5-min Rain = 0
KMC1 241832Z 11006KT 33/22 A2993 RMK A01 T03290219  RH  052%=      5-min Rain = 0
KMC1 241833Z 11005KT 33/22 A2993 RMK A01 T03290216  RH  051%=      5-min Rain = 0
KMC1 241834Z 11005KT 33/22 A2993 RMK A01 T03290220  RH  053%=      5-min Rain = 0
KMC1 241835Z 13004KT 33/22 A2993 RMK A01 T03290216  RH  051%=      5-min Rain = 0
KMC1 241836Z 11006G11KT 33/22 A2993 RMK A01 T03300219  RH  052%=      5-min Rain = 0
KMC1 241837Z 11008G13KT 33/22 A2993 RMK A01 T03310219  RH  052%=      5-min Rain = 0
KMC1 241838Z 13010KT 33/22 A2993 RMK A01 T03300217  RH  052%=      5-min Rain = 0
KMC1 241839Z 12009KT 33/21 A2993 RMK A01 T03260214  RH  052%=      5-min Rain = 0
KMC1 241840Z 12008KT 32/22 A2993 RMK A01 T03240216  RH  053%=      5-min Rain = 0
KMC1 241841Z 11006KT 33/21 A2993 RMK A01 T03250214  RH  052%=      5-min Rain = 0
KMC1 241842Z 11003KT 33/22 A2993 RMK A01 T03250216  RH  053%=      5-min Rain = 0
KMC1 241843Z 12006KT 33/22 A2993 RMK A01 T03270217  RH  052%=      5-min Rain = 0
KMC1 241844Z 13002KT 33/22 A2993 RMK A01 T03290216  RH  052%=      5-min Rain = 0
KMC1 241845Z 10008G14KT 33/22 A2993 RMK A01 T03320220  RH  052%=      5-min Rain = 0
KMC1 241846Z 10010KT 33/22 A2993 RMK A01 T03330217  RH  051%=      5-min Rain = 0
KMC1 241847Z 12011KT 33/21 A2993 RMK A01 T03290213  RH  051%=      5-min Rain = 0
KMC1 241848Z 12008KT 32/21 A2993 RMK A01 T03240214  RH  052%=      5-min Rain = 0
KMC1 241849Z 12007KT 33/22 A2993 RMK A01 T03250215  RH  052%=      5-min Rain = 0
KMC1 241850Z 13005KT 33/22 A2993 RMK A01 T03280219  RH  053%=      5-min Rain = 0
KMC1 241851Z 10009KT 33/22 A2993 RMK A01 T03310218  RH  051%=      5-min Rain = 0
KMC1 241852Z 10007KT 33/22 A2992 RMK A01 T03320219  RH  052%=      5-min Rain = 0
KMC1 241853Z 10006KT 33/22 A2992 RMK A01 T03310217  RH  051%=      5-min Rain = 0
KMC1 241854Z 10007KT 33/22 A2992 RMK A01 T03310217  RH  051%=      5-min Rain = 0
KMC1 241855Z 10008KT 33/22 A2992 RMK A01 T03300215  RH  051%=      5-min Rain = 0
KMC1 241856Z 11009KT 33/22 A2992 RMK A01 T03290215  RH  051%=      5-min Rain = 0
KMC1 241857Z 10008KT 33/22 A2992 RMK A01 T03280215  RH  051%=      5-min Rain = 0
KMC1 241858Z 10007KT 33/21 A2992 RMK A01 T03260214  RH  052%=      5-min Rain = 0
KMC1 241859Z 12006KT 33/22 A2992 RMK A01 T03250215  RH  052%=      5-min Rain = 0
KMC1 241900Z 16006KT 33/22 A2992 RMK A01 T03280216  RH  052%=      5-min Rain = 0
KMC1 241901Z 16008KT 33/21 A2992 RMK A01 T03320214  RH  050%=      5-min Rain = 0
KMC1 241902Z 16003KT 33/22 A2992 RMK A01 T03330215  RH  050%=      5-min Rain = 0
KMC1 241903Z 17002KT 33/22 A2992 RMK A01 T03340218  RH  051%=      5-min Rain = 0
KMC1 241904Z 14006KT 34/22 A2992 RMK A01 T03360215  RH  049%=      5-min Rain = 0
KMC1 241905Z 14004KT 34/22 A2992 RMK A01 T03360216  RH  049%=      5-min Rain = 0
KMC1 241906Z 12006KT 34/22 A2992 RMK A01 T03350215  RH  050%=      5-min Rain = 0
KMC1 241907Z 13007KT 33/22 A2992 RMK A01 T03310215  RH  050%=      5-min Rain = 0
KMC1 241908Z 11006KT 33/22 A2992 RMK A01 T03280216  RH  052%=      5-min Rain = 0
KMC1 241909Z 12008KT 33/22 A2992 RMK A01 T03270217  RH  052%=      5-min Rain = 0
KMC1 241910Z 13006KT 33/22 A2992 RMK A01 T03300220  RH  053%=      5-min Rain = 0
KMC1 241911Z 15007G12KT 34/22 A2992 RMK A01 T03360220  RH  051%=      5-min Rain = 0
KMC1 241912Z 17007KT 34/22 A2992 RMK A01 T03390218  RH  050%=      5-min Rain = 0
KMC1 241913Z 17007KT 34/22 A2992 RMK A01 T03380215  RH  049%=      5-min Rain = 0
KMC1 241914Z 19005KT 33/21 A2992 RMK A01 T03330214  RH  050%=      5-min Rain = 0
KMC1 241915Z 20004KT 33/22 A2992 RMK A01 T03330215  RH  050%=      5-min Rain = 0
KMC1 241916Z 11007KT 34/22 A2992 RMK A01 T03350218  RH  050%=      5-min Rain = 0
KMC1 241917Z 12006KT 34/21 A2992 RMK A01 T03370214  RH  049%=      5-min Rain = 0
KMC1 241918Z 11004KT 34/22 A2991 RMK A01 T03370221  RH  051%=      5-min Rain = 0
KMC1 241919Z 10006KT 34/22 A2991 RMK A01 T03430224  RH  050%=      5-min Rain = 0
KMC1 241920Z 12008G13KT 35/22 A2991 RMK A01 T03460220  RH  048%=      5-min Rain = 0
KMC1 241921Z 12010KT 35/22 A2991 RMK A01 T03450217  RH  048%=      5-min Rain = 0
KMC1 241922Z 11008KT 34/22 A2991 RMK A01 T03390215  RH  048%=      5-min Rain = 0
KMC1 241923Z 11005KT 33/21 A2991 RMK A01 T03340214  RH  050%=      5-min Rain = 0
KMC1 241924Z 10008KT 33/22 A2991 RMK A01 T03320216  RH  051%=      5-min Rain = 0
KMC1 241925Z 09005KT 33/21 A2991 RMK A01 T03290213  RH  051%=      5-min Rain = 0
KMC1 241926Z 11007KT 33/21 A2991 RMK A01 T03270213  RH  051%=      5-min Rain = 0
KMC1 241927Z 10007KT 33/21 A2991 RMK A01 T03260214  RH  052%=      5-min Rain = 0
KMC1 241928Z 11007KT 33/21 A2991 RMK A01 T03260213  RH  051%=      5-min Rain = 0
KMC1 241929Z 11006KT 33/21 A2991 RMK A01 T03280214  RH  051%=      5-min Rain = 0
KMC1 241930Z 08006KT 33/21 A2991 RMK A01 T03290214  RH  051%=      5-min Rain = 0
KMC1 241931Z 10006KT 33/22 A2991 RMK A01 T03300218  RH  052%=      5-min Rain = 0
KMC1 241932Z 10005KT 33/22 A2991 RMK A01 T03320216  RH  051%=      5-min Rain = 0
KMC1 241933Z 11004KT 33/22 A2991 RMK A01 T03330217  RH  051%=      5-min Rain = 0
KMC1 241934Z 12007KT 33/22 A2991 RMK A01 T03340217  RH  050%=      5-min Rain = 0
KMC1 241935Z 12006G11KT 34/22 A2991 RMK A01 T03360215  RH  049%=      5-min Rain = 0
KMC1 241936Z 14004KT 34/21 A2991 RMK A01 T03360214  RH  049%=      5-min Rain = 0
KMC1 241937Z 11006KT 34/22 A2991 RMK A01 T03360216  RH  049%=      5-min Rain = 0
KMC1 241938Z 11007G12KT 34/22 A2991 RMK A01 T03380220  RH  050%=      5-min Rain = 0
KMC1 241939Z 11008KT 34/22 A2991 RMK A01 T03420216  RH  048%=      5-min Rain = 0
KMC1 241940Z 11009KT 34/22 A2991 RMK A01 T03440216  RH  048%=      5-min Rain = 0
KMC1 241941Z 11008KT 34/21 A2991 RMK A01 T03410214  RH  048%=      5-min Rain = 0
KMC1 241942Z 12005KT 34/22 A2991 RMK A01 T03370216  RH  049%=      5-min Rain = 0
KMC1 241943Z 12007KT 34/22 A2991 RMK A01 T03390216  RH  049%=      5-min Rain = 0
KMC1 241944Z 12008KT 34/21 A2991 RMK A01 T03390214  RH  048%=      5-min Rain = 0
KMC1 241945Z 13007KT 34/22 A2991 RMK A01 T03410218  RH  049%=      5-min Rain = 0
KMC1 241946Z 15007KT 34/22 A2991 RMK A01 T03420218  RH  048%=      5-min Rain = 0
KMC1 241947Z 14007KT 34/22 A2991 RMK A01 T03420217  RH  048%=      5-min Rain = 0
KMC1 241948Z 13006KT 34/22 A2991 RMK A01 T03420216  RH  048%=      5-min Rain = 0
KMC1 241949Z 14006KT 34/21 A2991 RMK A01 T03380214  RH  048%=      5-min Rain = 0
KMC1 241950Z 13008KT 34/22 A2991 RMK A01 T03370215  RH  049%=      5-min Rain = 0
KMC1 241951Z 11007KT 34/21 A2991 RMK A01 T03370214  RH  049%=      5-min Rain = 0
KMC1 241952Z 10005KT 34/22 A299 RMK A01 T03380215  RH  049%=      5-min Rain = 0
KMC1 241953Z 11007KT 34/21 A299 RMK A01 T03390214  RH  048%=      5-min Rain = 0
KMC1 241954Z 12005KT 34/22 A299 RMK A01 T03400216  RH  048%=      5-min Rain = 0
KMC1 241955Z 11009KT 34/22 A299 RMK A01 T03410216  RH  048%=      5-min Rain = 0
KMC1 241956Z 10010KT 34/22 A299 RMK A01 T03420217  RH  048%=      5-min Rain = 0
KMC1 241957Z 11007KT 34/21 A299 RMK A01 T03410214  RH  048%=      5-min Rain = 0
KMC1 241958Z 10008KT 34/22 A299 RMK A01 T03400218  RH  049%=      5-min Rain = 0
KMC1 241959Z 09008KT 34/22 A299 RMK A01 T03420220  RH  049%=      5-min Rain = 0
KMC1 242000Z 09006KT 35/22 A299 RMK A01 T03460220  RH  048%=      5-min Rain = 0
KMC1 242001Z 09006KT 35/22 A299 RMK A01 T03460219  RH  048%=      5-min Rain = 0
KMC1 242002Z 09005KT 35/22 A299 RMK A01 T03450217  RH  047%=      5-min Rain = 0
KMC1 242003Z 10007KT 34/22 A299 RMK A01 T03420215  RH  048%=      5-min Rain = 0
KMC1 242004Z 11008KT 34/22 A299 RMK A01 T03410219  RH  049%=      5-min Rain = 0
KMC1 242005Z 10010KT 34/22 A299 RMK A01 T03420216  RH  048%=      5-min Rain = 0
KMC1 242006Z 11008KT 34/21 A299 RMK A01 T03410212  RH  047%=      5-min Rain = 0
KMC1 242007Z 11005KT 34/21 A299 RMK A01 T03380214  RH  048%=      5-min Rain = 0
KMC1 242008Z 09007KT 34/21 A299 RMK A01 T03360214  RH  049%=      5-min Rain = 0
KMC1 242009Z 11008KT 34/21 A299 RMK A01 T03350213  RH  049%=      5-min Rain = 0
KMC1 242010Z 10007KT 33/21 A299 RMK A01 T03330213  RH  050%=      5-min Rain = 0
KMC1 242011Z 11006KT 33/21 A299 RMK A01 T03310213  RH  050%=      5-min Rain = 0
KMC1 242012Z 11006KT 33/21 A299 RMK A01 T03290211  RH  050%=      5-min Rain = 0
KMC1 242013Z 08006G11KT 33/21 A299 RMK A01 T03290214  RH  051%=      5-min Rain = 0
KMC1 242014Z 08007KT 33/21 A299 RMK A01 T03310213  RH  050%=      5-min Rain = 0
KMC1 242015Z 10006KT 33/21 A299 RMK A01 T03320212  RH  049%=      5-min Rain = 0
KMC1 242016Z 13008KT 33/21 A299 RMK A01 T03340212  RH  049%=      5-min Rain = 0
KMC1 242017Z 13007KT 33/21 A299 RMK A01 T03340210  RH  048%=      5-min Rain = 0
KMC1 242018Z 13005KT 33/21 A299 RMK A01 T03320209  RH  048%=      5-min Rain = 0
KMC1 242019Z 12004KT 33/21 A299 RMK A01 T03310212  RH  050%=      5-min Rain = 0
KMC1 242020Z 11007G12KT 33/21 A299 RMK A01 T03310213  RH  050%=      5-min Rain = 0
KMC1 242021Z 11008KT 33/21 A2989 RMK A01 T03320213  RH  050%=      5-min Rain = 0
KMC1 242022Z 12011KT 33/21 A2989 RMK A01 T03320211  RH  049%=      5-min Rain = 0
KMC1 242023Z 12012KT 33/21 A2989 RMK A01 T03320210  RH  049%=      5-min Rain = 0
KMC1 242024Z 12008KT 33/21 A2989 RMK A01 T03310211  RH  049%=      5-min Rain = 0
KMC1 242025Z 11006KT 33/21 A2989 RMK A01 T03310211  RH  049%=      5-min Rain = 0
KMC1 242026Z 12006KT 33/21 A2989 RMK A01 T03310214  RH  050%=      5-min Rain = 0
KMC1 242027Z 12006KT 33/21 A2989 RMK A01 T03320211  RH  049%=      5-min Rain = 0
KMC1 242028Z 14003KT 33/21 A2989 RMK A01 T03330210  RH  049%=      5-min Rain = 0
KMC1 242029Z 13009KT 33/21 A2989 RMK A01 T03330214  RH  050%=      5-min Rain = 0
KMC1 242030Z 12010KT 34/21 A2989 RMK A01 T03350214  RH  049%=      5-min Rain = 0
KMC1 242031Z 13009KT 34/21 A2989 RMK A01 T03360214  RH  049%=      5-min Rain = 0
KMC1 242032Z 15005KT 33/21 A2989 RMK A01 T03340212  RH  049%=      5-min Rain = 0
KMC1 242033Z 13007G13KT 33/21 A2989 RMK A01 T03330214  RH  050%=      5-min Rain = 0
KMC1 242034Z 12010KT 33/21 A2989 RMK A01 T03320214  RH  050%=      5-min Rain = 0
KMC1 242035Z 10012G17KT 33/22 A2989 RMK A01 T03320216  RH  051%=      5-min Rain = 0
KMC1 242036Z 10009KT 33/21 A2989 RMK A01 T03330214  RH  050%=      5-min Rain = 0
KMC1 242037Z 10006KT 33/22 A2989 RMK A01 T03330215  RH  050%=      5-min Rain = 0
KMC1 242038Z 12008G14KT 34/22 A2989 RMK A01 T03350215  RH  050%=      5-min Rain = 0
KMC1 242039Z 10007G13KT 34/22 A2989 RMK A01 T03370217  RH  050%=      5-min Rain = 0
KMC1 242040Z 10009KT 34/22 A2989 RMK A01 T03390218  RH  049%=      5-min Rain = 0
KMC1 242041Z 12008KT 34/22 A2989 RMK A01 T03390215  RH  048%=      5-min Rain = 0
KMC1 242042Z 12010KT 34/21 A2989 RMK A01 T03350214  RH  049%=      5-min Rain = 0
KMC1 242043Z 12009KT 33/21 A2989 RMK A01 T03330213  RH  050%=      5-min Rain = 0
KMC1 242044Z 11006KT 33/21 A2989 RMK A01 T03300214  RH  051%=      5-min Rain = 0
KMC1 242045Z 10010KT 33/22 A2989 RMK A01 T03320216  RH  051%=      5-min Rain = 0
KMC1 242046Z 11011KT 33/21 A2989 RMK A01 T03330214  RH  050%=      5-min Rain = 0
KMC1 242047Z 12008KT 33/21 A2989 RMK A01 T03330214  RH  050%=      5-min Rain = 0
KMC1 242048Z 12012KT 33/22 A2989 RMK A01 T03330216  RH  050%=      5-min Rain = 0
KMC1 242049Z 12009KT 34/21 A2988 RMK A01 T03350214  RH  049%=      5-min Rain = 0
KMC1 242050Z 11007G12KT 34/22 A2988 RMK A01 T03360218  RH  050%=      5-min Rain = 0
KMC1 242051Z 12007KT 34/21 A2988 RMK A01 T03370214  RH  049%=      5-min Rain = 0
KMC1 242052Z 10006KT 34/22 A2988 RMK A01 T03360216  RH  049%=      5-min Rain = 0
KMC1 242053Z 10005KT 34/22 A2988 RMK A01 T03390221  RH  050%=      5-min Rain = 0
KMC1 242054Z 11011KT 34/22 A2988 RMK A01 T03430219  RH  048%=      5-min Rain = 0
KMC1 242055Z 11014KT 34/22 A2988 RMK A01 T03430217  RH  048%=      5-min Rain = 0
KMC1 242056Z 11012KT 34/22 A2988 RMK A01 T03410217  RH  048%=      5-min Rain = 0
KMC1 242057Z 13010KT 34/22 A2988 RMK A01 T03390217  RH  049%=      5-min Rain = 0
KMC1 242058Z 13012KT 34/22 A2988 RMK A01 T03400216  RH  048%=      5-min Rain = 0
KMC1 242059Z 13011KT 34/22 A2988 RMK A01 T03380215  RH  049%=      5-min Rain = 0
KMC1 242100Z 12010G15KT 34/22 A2988 RMK A01 T03350215  RH  049%=      5-min Rain = 0
KMC1 242101Z 12010G15KT 33/21 A2988 RMK A01 T03320213  RH  050%=      5-min Rain = 0
KMC1 242102Z 11009KT 33/21 A2988 RMK A01 T03310214  RH  050%=      5-min Rain = 0
KMC1 242103Z 12009KT 33/22 A2988 RMK A01 T03310215  RH  050%=      5-min Rain = 0
KMC1 242104Z 11009KT 33/22 A2988 RMK A01 T03330215  RH  050%=      5-min Rain = 0
KMC1 242105Z 11006KT 33/22 A2988 RMK A01 T03320215  RH  050%=      5-min Rain = 0
KMC1 242106Z 11009KT 33/22 A2988 RMK A01 T03320217  RH  051%=      5-min Rain = 0
KMC1 242107Z 11007KT 34/22 A2988 RMK A01 T03350215  RH  049%=      5-min Rain = 0
KMC1 242108Z 10008KT 34/22 A2988 RMK A01 T03360217  RH  050%=      5-min Rain = 0
KMC1 242109Z 10008KT 34/22 A2988 RMK A01 T03390217  RH  049%=      5-min Rain = 0
KMC1 242110Z 11009G15KT 34/22 A2988 RMK A01 T03410218  RH  049%=      5-min Rain = 0
KMC1 242111Z 12013KT 34/22 A2988 RMK A01 T03420215  RH  048%=      5-min Rain = 0
KMC1 242112Z 13011G16KT 34/21 A2988 RMK A01 T03390212  RH  047%=      5-min Rain = 0
KMC1 242113Z 12008G13KT 33/21 A2988 RMK A01 T03340210  RH  048%=      5-min Rain = 0
KMC1 242114Z 12006KT 33/21 A2988 RMK A01 T03310211  RH  049%=      5-min Rain = 0
KMC1 242115Z 10008KT 33/21 A2988 RMK A01 T03310213  RH  050%=      5-min Rain = 0
KMC1 242116Z 11008KT 33/21 A2988 RMK A01 T03320214  RH  050%=      5-min Rain = 0
KMC1 242117Z 10008KT 33/22 A2988 RMK A01 T03330216  RH  050%=      5-min Rain = 0
KMC1 242118Z 11009KT 33/22 A2988 RMK A01 T03330215  RH  050%=      5-min Rain = 0
KMC1 242119Z 12009KT 33/22 A2988 RMK A01 T03320215  RH  050%=      5-min Rain = 0
KMC1 242120Z 12010KT 33/21 A2988 RMK A01 T03330214  RH  050%=      5-min Rain = 0
KMC1 242121Z 10006KT 33/21 A2988 RMK A01 T03340214  RH  049%=      5-min Rain = 0
KMC1 242122Z 11010KT 34/22 A2988 RMK A01 T03370217  RH  050%=      5-min Rain = 0
KMC1 242123Z 11010KT 34/21 A2988 RMK A01 T03360213  RH  049%=      5-min Rain = 0
KMC1 242124Z 14011KT 33/21 A2988 RMK A01 T03340213  RH  049%=      5-min Rain = 0
KMC1 242125Z 15010KT 33/21 A2988 RMK A01 T03330212  RH  049%=      5-min Rain = 0
KMC1 242126Z 14007KT 33/21 A2988 RMK A01 T03340213  RH  049%=      5-min Rain = 0
KMC1 242127Z 12011KT 34/21 A2988 RMK A01 T03370213  RH  048%=      5-min Rain = 0
KMC1 242128Z 13013KT 34/21 A2988 RMK A01 T03390212  RH  048%=      5-min Rain = 0
KMC1 242129Z 13011G16KT 34/21 A2988 RMK A01 T03380213  RH  048%=      5-min Rain = 0
KMC1 242130Z 13012KT 34/21 A2988 RMK A01 T03380212  RH  048%=      5-min Rain = 0
KMC1 242131Z 13012KT 34/21 A2988 RMK A01 T03370212  RH  048%=      5-min Rain = 0
KMC1 242132Z 14012KT 34/21 A2988 RMK A01 T03370212  RH  048%=      5-min Rain = 0
KMC1 242133Z 11008KT 34/21 A2988 RMK A01 T03380211  RH  048%=      5-min Rain = 0
KMC1 242134Z 09009KT 34/22 A2988 RMK A01 T03380215  RH  049%=      5-min Rain = 0
KMC1 242135Z 12008KT 34/21 A2987 RMK A01 T03390213  RH  048%=      5-min Rain = 0
KMC1 242136Z 13005KT 34/22 A2987 RMK A01 T03410216  RH  048%=      5-min Rain = 0
KMC1 242137Z 12010KT 35/22 A2987 RMK A01 T03450217  RH  048%=      5-min Rain = 0
KMC1 242138Z 10011G17KT 35/22 A2987 RMK A01 T03460217  RH  047%=      5-min Rain = 0
KMC1 242139Z 11008G14KT 35/22 A2987 RMK A01 T03450217  RH  047%=      5-min Rain = 0
KMC1 242140Z 12010G16KT 35/22 A2987 RMK A01 T03450217  RH  047%=      5-min Rain = 0
KMC1 242141Z 12011KT 35/22 A2987 RMK A01 T03450217  RH  047%=      5-min Rain = 0
KMC1 242142Z 13011G16KT 35/21 A2987 RMK A01 T03450214  RH  047%=      5-min Rain = 0
KMC1 242143Z 13007G12KT 34/22 A2987 RMK A01 T03420215  RH  047%=      5-min Rain = 0
KMC1 242144Z 12008KT 34/22 A2987 RMK A01 T03430217  RH  048%=      5-min Rain = 0
KMC1 242145Z 11009KT 35/21 A2987 RMK A01 T03450214  RH  047%=      5-min Rain = 0
KMC1 242146Z 11007KT 34/22 A2986 RMK A01 T03440217  RH  048%=      5-min Rain = 0
KMC1 242147Z 11006KT 35/22 A2986 RMK A01 T03450218  RH  048%=      5-min Rain = 0
KMC1 242148Z 09008G14KT 35/22 A2986 RMK A01 T03450216  RH  047%=      5-min Rain = 0
KMC1 242149Z 09008KT 34/22 A2986 RMK A01 T03440215  RH  047%=      5-min Rain = 0
KMC1 242150Z 12007KT 34/22 A2986 RMK A01 T03440216  RH  047%=      5-min Rain = 0
KMC1 242151Z 14008G13KT 35/22 A2987 RMK A01 T03450217  RH  047%=      5-min Rain = 0
KMC1 242152Z 12010KT 35/21 A2987 RMK A01 T03470213  RH  046%=      5-min Rain = 0
KMC1 242153Z 12007KT 35/21 A2986 RMK A01 T03450214  RH  046%=      5-min Rain = 0
KMC1 242154Z 13012G17KT 35/21 A2986 RMK A01 T03450214  RH  047%=      5-min Rain = 0
KMC1 242155Z 12012KT 34/21 A2986 RMK A01 T03420210  RH  046%=      5-min Rain = 0
KMC1 242156Z 13012KT 34/21 A2986 RMK A01 T03380208  RH  046%=      5-min Rain = 0
KMC1 242157Z 14009KT 34/21 A2986 RMK A01 T03350208  RH  047%=      5-min Rain = 0
KMC1 242158Z 15008G13KT 34/21 A2986 RMK A01 T03350212  RH  049%=      5-min Rain = 0
KMC1 242159Z 14010G15KT 34/21 A2986 RMK A01 T03380213  RH  048%=      5-min Rain = 0
KMC1 242200Z 13009KT 34/22 A2986 RMK A01 T03410215  RH  048%=      5-min Rain = 0
KMC1 242201Z 13008KT 34/22 A2986 RMK A01 T03430216  RH  048%=      5-min Rain = 0
KMC1 242202Z 12009KT 35/22 A2986 RMK A01 T03450216  RH  047%=      5-min Rain = 0
KMC1 242203Z 12009KT 35/22 A2986 RMK A01 T03470215  RH  046%=      5-min Rain = 0
KMC1 242204Z 13010KT 35/21 A2986 RMK A01 T03480213  RH  046%=      5-min Rain = 0
KMC1 242205Z 13012G17KT 35/21 A2986 RMK A01 T03470212  RH  046%=      5-min Rain = 0
KMC1 242206Z 15008KT 34/21 A2986 RMK A01 T03440211  RH  046%=      5-min Rain = 0
KMC1 242207Z 15010KT 34/21 A2986 RMK A01 T03420211  RH  046%=      5-min Rain = 0
KMC1 242208Z 14010KT 34/21 A2986 RMK A01 T03420211  RH  046%=      5-min Rain = 0
KMC1 242209Z 15008G13KT 34/21 A2985 RMK A01 T03440211  RH  046%=      5-min Rain = 0
KMC1 242210Z 13010KT 35/21 A2985 RMK A01 T03460210  RH  045%=      5-min Rain = 0
KMC1 242211Z 12010KT 35/21 A2985 RMK A01 T03450209  RH  045%=      5-min Rain = 0
KMC1 242212Z 12009KT 34/21 A2985 RMK A01 T03430211  RH  046%=      5-min Rain = 0
KMC1 242213Z 15009KT 34/21 A2985 RMK A01 T03440212  RH  046%=      5-min Rain = 0
KMC1 242214Z 13011KT 35/21 A2985 RMK A01 T03460210  RH  045%=      5-min Rain = 0
KMC1 242215Z 14012G17KT 35/21 A2985 RMK A01 T03480210  RH  045%=      5-min Rain = 0
KMC1 242216Z 15012G17KT 35/21 A2985 RMK A01 T03470209  RH  045%=      5-min Rain = 0
KMC1 242217Z 15010G15KT 35/21 A2985 RMK A01 T03470210  RH  045%=      5-min Rain = 0
KMC1 242218Z 12009G16KT 35/21 A2985 RMK A01 T03470210  RH  045%=      5-min Rain = 0
KMC1 242219Z 13016G23KT 35/21 A2984 RMK A01 T03460209  RH  045%=      5-min Rain = 0
KMC1 242220Z 13014KT 34/21 A2984 RMK A01 T03420208  RH  046%=      5-min Rain = 0
KMC1 242221Z 14011G18KT 34/21 A2985 RMK A01 T03400209  RH  047%=      5-min Rain = 0
KMC1 242222Z 15010KT 34/21 A2984 RMK A01 T03430212  RH  047%=      5-min Rain = 0
KMC1 242223Z 13012KT 35/21 A2984 RMK A01 T03450210  RH  045%=      5-min Rain = 0
KMC1 242224Z 12011G16KT 35/21 A2984 RMK A01 T03460210  RH  045%=      5-min Rain = 0
KMC1 242225Z 13016G26KT 35/22 A2985 RMK A01 T03450215  RH  047%=      5-min Rain = 0
KMC1 242226Z 13021G26KT 34/22 A2985 RMK A01 T03390224  RH  051%=      5-min Rain = 0
KMC1 242227Z 12019G27KT 33/22 A2985 RMK A01 T03260224  RH  055%=      5-min Rain = 0
KMC1 242228Z 13022G30KT 32/22 A2985 RMK A01 T03180222  RH  057%=      5-min Rain = 0
KMC1 242229Z 12019G25KT 31/22 A2985 RMK A01 T03120222  RH  059%=      5-min Rain = 0
KMC1 242230Z 12017G22KT 31/22 A2985 RMK A01 T03090221  RH  060%=      5-min Rain = 0
KMC1 242231Z 12017KT 31/22 A2985 RMK A01 T03070222  RH  060%=      5-min Rain = 0
KMC1 242232Z 13019KT 31/22 A2985 RMK A01 T03060222  RH  061%=      5-min Rain = 0
KMC1 242233Z 12017G22KT 31/22 A2985 RMK A01 T03060222  RH  061%=      5-min Rain = 0
KMC1 242234Z 11018G23KT 31/22 A2985 RMK A01 T03060222  RH  061%=      5-min Rain = 0
KMC1 242235Z 12017KT 31/22 A2985 RMK A01 T03060223  RH  061%=      5-min Rain = 0
KMC1 242236Z 13018KT 31/22 A2985 RMK A01 T03050222  RH  061%=      5-min Rain = 0
KMC1 242237Z 13015G21KT 30/22 A2985 RMK A01 T03040221  RH  061%=      5-min Rain = 0
KMC1 242238Z 13019KT 30/22 A2985 RMK A01 T03030222  RH  062%=      5-min Rain = 0
KMC1 242239Z 13012G17KT 30/22 A2985 RMK A01 T03020222  RH  062%=      5-min Rain = 0
KMC1 242240Z 13014G23KT 30/22 A2984 RMK A01 T03010222  RH  063%=      5-min Rain = 0
KMC1 242241Z 12013G18KT 30/22 A2984 RMK A01 T03020222  RH  062%=      5-min Rain = 0
KMC1 242242Z 13017KT 30/22 A2984 RMK A01 T03010222  RH  062%=      5-min Rain = 0
KMC1 242243Z 13018G24KT 30/22 A2984 RMK A01 T03020221  RH  062%=      5-min Rain = 0
KMC1 242244Z 12021G28KT 30/22 A2984 RMK A01 T03020221  RH  062%=      5-min Rain = 0
KMC1 242245Z 12015KT 30/22 A2984 RMK A01 T03010221  RH  062%=      5-min Rain = 0
KMC1 242246Z 12018G24KT 30/22 A2983 RMK A01 T03000221  RH  063%=      5-min Rain = 0
KMC1 242247Z 12018G26KT 30/22 A2983 RMK A01 T02990221  RH  063%=      5-min Rain = 0
KMC1 242248Z 11017G22KT 30/22 A2983 RMK A01 T02980220  RH  063%=      5-min Rain = 0
KMC1 242249Z 12015G22KT 30/22 A2983 RMK A01 T02970220  RH  064%=      5-min Rain = 0
KMC1 242250Z 12018G24KT 30/22 A2983 RMK A01 T02960220  RH  064%=      5-min Rain = 0
KMC1 242251Z 12016G21KT 30/22 A2982 RMK A01 T02950220  RH  064%=      5-min Rain = 0
KMC1 242252Z 12014G19KT 29/22 A2982 RMK A01 T02940220  RH  064%=      5-min Rain = 0
KMC1 242253Z 11017KT 29/22 A2982 RMK A01 T02940221  RH  065%=      5-min Rain = 0
KMC1 242254Z 12015G20KT 29/22 A2981 RMK A01 T02940220  RH  064%=      5-min Rain = 0
KMC1 242255Z 12021G33KT 29/22 A2981 RMK A01 T02940219  RH  064%=      5-min Rain = 0
KMC1 242256Z 12018G23KT 29/22 A2981 RMK A01 T02930219  RH  064%=      5-min Rain = 0
KMC1 242257Z 13015G20KT 29/22 A2981 RMK A01 T02920219  RH  065%=      5-min Rain = 0
KMC1 242258Z 13015G20KT 29/22 A2981 RMK A01 T02920220  RH  065%=      5-min Rain = 0
KMC1 242259Z 13017G22KT 29/22 A2981 RMK A01 T02920220  RH  065%=      5-min Rain = 0
KMC1 242300Z 12018G25KT 29/22 A2981 RMK A01 T02910220  RH  066%=      5-min Rain = 0
KMC1 242301Z 13017G23KT 29/22 A2981 RMK A01 T02910221  RH  066%=      5-min Rain = 0
KMC1 242302Z 14014KT 29/22 A2981 RMK A01 T02920221  RH  066%=      5-min Rain = 0
KMC1 242303Z 14018G24KT 29/22 A298 RMK A01 T02930220  RH  065%=      5-min Rain = 0
KMC1 242304Z 13014G19KT 29/22 A298 RMK A01 T02930220  RH  065%=      5-min Rain = 0
KMC1 242305Z 12014G20KT 29/22 A298 RMK A01 T02930219  RH  064%=      5-min Rain = 0
KMC1 242306Z 12019G25KT 29/22 A298 RMK A01 T02930219  RH  064%=      5-min Rain = 0
KMC1 242307Z 12018G28KT 29/22 A298 RMK A01 T02920218  RH  064%=      5-min Rain = 0
KMC1 242308Z 12020G26KT 29/22 A2981 RMK A01 T02920217  RH  064%=      5-min Rain = 0
KMC1 242309Z 12019KT 29/22 A2981 RMK A01 T02920217  RH  064%=      5-min Rain = 0
KMC1 242310Z 13018G25KT 29/22 A2982 RMK A01 T02920217  RH  064%=      5-min Rain = 0
KMC1 242311Z 13017G23KT 29/22 A2982 RMK A01 T02920216  RH  064%=      5-min Rain = 0
KMC1 242312Z 14015G22KT 29/22 A2983 RMK A01 T02920217  RH  064%=      5-min Rain = 0
KMC1 242313Z 13014G19KT 29/22 A2983 RMK A01 T02920217  RH  064%=      5-min Rain = 0
KMC1 242314Z 12014G20KT 29/22 A2983 RMK A01 T02920217  RH  064%=      5-min Rain = 0
KMC1 242315Z 13013G19KT 29/22 A2983 RMK A01 T02920217  RH  064%=      5-min Rain = 0
KMC1 242316Z 13012G18KT 29/22 A2983 RMK A01 T02920217  RH  064%=      5-min Rain = 0
KMC1 242317Z 13014G20KT 29/22 A2983 RMK A01 T02920217  RH  064%=      5-min Rain = 0
KMC1 242318Z 12015KT 29/22 A2983 RMK A01 T02930217  RH  064%=      5-min Rain = 0
KMC1 242319Z 12017KT 29/22 A2983 RMK A01 T02930217  RH  064%=      5-min Rain = 0
KMC1 242320Z 12016G22KT 29/22 A2982 RMK A01 T02930217  RH  064%=      5-min Rain = 0
KMC1 242321Z 12016KT 29/22 A2982 RMK A01 T02920217  RH  064%=      5-min Rain = 0
KMC1 242322Z 12016KT 29/22 A2982 RMK A01 T02920216  RH  064%=      5-min Rain = 0
KMC1 242323Z 13016KT 29/22 A2982 RMK A01 T02910216  RH  064%=      5-min Rain = 0
KMC1 242324Z 14018G23KT 29/22 A2982 RMK A01 T02920216  RH  064%=      5-min Rain = 0
KMC1 242325Z 14017KT 29/22 A2982 RMK A01 T02920215  RH  064%=      5-min Rain = 0
KMC1 242326Z 13015G22KT 29/22 A2982 RMK A01 T02910215  RH  063%=      5-min Rain = 0
KMC1 242327Z 13017G25KT 29/22 A2981 RMK A01 T02910215  RH  063%=      5-min Rain = 0
KMC1 242328Z 13020G25KT 29/21 A2981 RMK A01 T02910214  RH  063%=      5-min Rain = 0
KMC1 242329Z 13010G15KT 29/21 A2981 RMK A01 T02900214  RH  063%=      5-min Rain = 0
KMC1 242330Z 14013KT 29/21 A298 RMK A01 T02900214  RH  064%=      5-min Rain = 0
KMC1 242331Z 14014G20KT 29/21 A298 RMK A01 T02900214  RH  064%=      5-min Rain = 0
KMC1 242332Z 14011G19KT 29/21 A298 RMK A01 T02900214  RH  064%=      5-min Rain = 0
KMC1 242333Z 14011G17KT 29/21 A2981 RMK A01 T02900214  RH  064%=      5-min Rain = 0
KMC1 242334Z 15014G21KT 29/21 A2981 RMK A01 T02900213  RH  063%=      5-min Rain = 0
KMC1 242335Z 14013KT 29/21 A2982 RMK A01 T02890212  RH  063%=      5-min Rain = 0
KMC1 242336Z 13015G20KT 29/21 A2982 RMK A01 T02890211  RH  063%=      5-min Rain = 0
KMC1 242337Z 14016G21KT 29/21 A2982 RMK A01 T02890211  RH  063%=      5-min Rain = 0
KMC1 242338Z 14012G17KT 29/21 A2981 RMK A01 T02890212  RH  063%=      5-min Rain = 0
KMC1 242339Z 14012G17KT 29/21 A2981 RMK A01 T02890211  RH  063%=      5-min Rain = 0
KMC1 242340Z 15011KT 29/21 A298 RMK A01 T02880212  RH  063%=      5-min Rain = 0
KMC1 242341Z 15014G21KT 29/21 A298 RMK A01 T02880211  RH  063%=      5-min Rain = 0
KMC1 242342Z 16014G19KT 29/21 A298 RMK A01 T02880211  RH  063%=      5-min Rain = 0
KMC1 242343Z 14017G24KT 29/21 A298 RMK A01 T02880210  RH  063%=      5-min Rain = 0
KMC1 242344Z 14016G24KT 29/21 A2981 RMK A01 T02880209  RH  062%=      5-min Rain = 0
KMC1 242345Z 15013G21KT 29/21 A2982 RMK A01 T02880209  RH  062%=      5-min Rain = 0
KMC1 242346Z 14009KT 29/21 A2983 RMK A01 T02870209  RH  063%=      5-min Rain = 0
KMC1 242347Z 13011KT 29/21 A2984 RMK A01 T02880210  RH  063%=      5-min Rain = 0
KMC1 242348Z 13007KT 29/21 A2986 RMK A01 T02870209  RH  063%=      5-min Rain = 0
KMC1 242349Z 04004KT 29/21 A2988 RMK A01 T02870209  RH  063%=      5-min Rain = 0
KMC1 242350Z 31019G29KT 29/20 A2989 RMK A01 T02850199  RH  059%=      5-min Rain = 0
KMC1 242351Z 31018G26KT 27/17 A299 RMK A01 T02680173  RH  056%=      5-min Rain = 0
KMC1 242352Z 31013G22KT 24/16 A299 RMK A01 T02410159  RH  060%=      5-min Rain = 0
KMC1 242353Z 30007G14KT 22/16 A299 RMK A01 T02210157  RH  067%=      5-min Rain = 0
KMC1 242354Z 27007G14KT 21/16 A299 RMK A01 T02110158  RH  072%=      5-min Rain = 0
KMC1 242355Z 24005KT 20/16 A299 RMK A01 T02040159  RH  075%=      5-min Rain = 0
KMC1 242356Z 24007KT 20/16 A299 RMK A01 T01990161  RH  078%=      5-min Rain = 0
KMC1 242357Z 24010G15KT 20/16 A2988 RMK A01 T01960162  RH  081%=      5-min Rain = 0
KMC1 242358Z 26019G26KT 19/16 A2988 RMK A01 T01930163  RH  083%=      5-min Rain = 0.01
KMC1 242359Z 27013G21KT 19/17 A2986 RMK A01 T01890165  RH  086%=      5-min Rain = 0.01
KMC1 250000Z 29017G24KT 18/16 A2985 RMK A01 T01830163  RH  088%=      5-min Rain = 0
KMC1 250001Z 30020G27KT 18/16 A2984 RMK A01 T01790163  RH  090%=      5-min Rain = 0.01
KMC1 250002Z 30026G34KT 18/17 A2984 RMK A01 T01780168  RH  094%=      5-min Rain = 0
KMC1 250003Z 32014G19KT 18/17 A2984 RMK A01 T01790172  RH  096%=      5-min Rain = 0
KMC1 250004Z 31020G37KT 18/18 A2985 RMK A01 T01820175  RH  096%=      5-min Rain = 0.01
KMC1 250005Z 30024G36KT 18/18 A2985 RMK A01 T01830175  RH  095%=      5-min Rain = 0
KMC1 250006Z 30019G29KT 19/17 A2985 RMK A01 T01850171  RH  092%=      5-min Rain = 0.01
KMC1 250007Z 29030G39KT 19/17 A2986 RMK A01 T01850172  RH  092%=      5-min Rain = 0.01
KMC1 250008Z 31018G24KT 19/18 A2987 RMK A01 T01850175  RH  094%=      5-min Rain = 0
KMC1 250009Z 32017KT 19/18 A2988 RMK A01 T01870178  RH  095%=      5-min Rain = 0
KMC1 250010Z 32016KT 19/18 A2989 RMK A01 T01900179  RH  093%=      5-min Rain = 0
KMC1 250011Z 34013KT 19/18 A2991 RMK A01 T01920177  RH  091%=      5-min Rain = 0
KMC1 250012Z 32011KT 19/18 A2991 RMK A01 T01930175  RH  089%=      5-min Rain = 0
KMC1 250013Z 29014G28KT 19/18 A2992 RMK A01 T01930180  RH  092%=      5-min Rain = 0
KMC1 250014Z 32023KT 19/17 A2992 RMK A01 T01900171  RH  089%=      5-min Rain = 0.01
KMC1 250015Z 30028G38KT 18/16 A2992 RMK A01 T01830163  RH  088%=      5-min Rain = 0.01
KMC1 250016Z 29023G30KT 18/16 A2993 RMK A01 T01760158  RH  089%=      5-min Rain = 0.01
KMC1 250017Z 30024G37KT 17/16 A2994 RMK A01 T01720158  RH  092%=      5-min Rain = 0.01
KMC1 250018Z 30026G38KT 17/16 A2995 RMK A01 T01690158  RH  094%=      5-min Rain = 0.02
KMC1 250019Z 30023G35KT 17/16 A2995 RMK A01 T01670160  RH  096%=      5-min Rain = 0
KMC1 250020Z 30029G43KT 17/16 A2995 RMK A01 T01660161  RH  097%=      5-min Rain = 0.04
KMC1 250021Z 31018G24KT 17/16 A2996 RMK A01 T01660162  RH  097%=      5-min Rain = 0.05
KMC1 250022Z 33021G29KT 17/16 A2996 RMK A01 T01660162  RH  098%=      5-min Rain = 0.06
KMC1 250023Z 33018G23KT 17/16 A2996 RMK A01 T01660163  RH  098%=      5-min Rain = 0.03
KMC1 250024Z 30018G27KT 17/16 A2995 RMK A01 T01670164  RH  098%=      5-min Rain = 0.04
KMC1 250025Z 30020G27KT 17/16 A2995 RMK A01 T01670164  RH  098%=      5-min Rain = 0.04
KMC1 250026Z 30015G21KT 17/16 A2996 RMK A01 T01660164  RH  098%=      5-min Rain = 0.05
KMC1 250027Z 30022G28KT 17/16 A2997 RMK A01 T01660164  RH  099%=      5-min Rain = 0.05
KMC1 250028Z 30019KT 17/17 A2998 RMK A01 T01660165  RH  099%=      5-min Rain = 0.05
KMC1 250029Z 30017G22KT 17/17 A2998 RMK A01 T01660165  RH  099%=      5-min Rain = 0.07
KMC1 250030Z 29011G19KT 17/16 A2998 RMK A01 T01660164  RH  099%=      5-min Rain = 0.06
KMC1 250031Z 31009G15KT 17/16 A2998 RMK A01 T01650164  RH  099%=      5-min Rain = 0.04
KMC1 250032Z 36004KT 17/16 A2997 RMK A01 T01650164  RH  099%=      5-min Rain = 0.03
KMC1 250033Z 35005KT 17/16 A2998 RMK A01 T01650164  RH  099%=      5-min Rain = 0.02
KMC1 250034Z 03009KT 17/17 A2999 RMK A01 T01660166  RH  100%=      5-min Rain = 0.03
KMC1 250035Z 02015G20KT 17/17 A2999 RMK A01 T01690168  RH  100%=      5-min Rain = 0.02
KMC1 250036Z 35010G17KT 17/17 A2999 RMK A01 T01710171  RH  100%=      5-min Rain = 0.03
KMC1 250037Z 34009KT 17/17 A30 RMK A01 T01730172  RH  099%=      5-min Rain = 0.02
KMC1 250038Z 35010G16KT 17/17 A30 RMK A01 T01730171  RH  099%=      5-min Rain = 0.02
KMC1 250039Z 01009G15KT 17/17 A30 RMK A01 T01730170  RH  098%=      5-min Rain = 0.02
KMC1 250040Z 33010KT 17/17 A30 RMK A01 T01740170  RH  098%=      5-min Rain = 0.04
KMC1 250041Z 30006KT 17/17 A30 RMK A01 T01740170  RH  097%=      5-min Rain = 0.04
KMC1 250042Z 31008KT 17/17 A2999 RMK A01 T01730169  RH  097%=      5-min Rain = 0.02
KMC1 250043Z 30012KT 17/17 A2999 RMK A01 T01720168  RH  097%=      5-min Rain = 0.03
KMC1 250044Z 31011KT 17/17 A2999 RMK A01 T01710168  RH  098%=      5-min Rain = 0.03
KMC1 250045Z 32012KT 17/17 A2998 RMK A01 T01710168  RH  098%=      5-min Rain = 0.05
KMC1 250046Z 32011KT 17/17 A2999 RMK A01 T01710168  RH  098%=      5-min Rain = 0.04
KMC1 250047Z 31007KT 17/17 A2998 RMK A01 T01710168  RH  098%=      5-min Rain = 0.04
KMC1 250048Z 34010KT 17/17 A2998 RMK A01 T01710168  RH  098%=      5-min Rain = 0.03
KMC1 250049Z 32008KT 17/17 A2998 RMK A01 T01700168  RH  098%=      5-min Rain = 0.03
KMC1 250050Z 36005KT 17/17 A2998 RMK A01 T01700168  RH  098%=      5-min Rain = 0.02
KMC1 250051Z 00003KT 17/17 A2998 RMK A01 T01700168  RH  098%=      5-min Rain = 0.03
KMC1 250052Z 33004G11KT 17/17 A2998 RMK A01 T01700168  RH  099%=      5-min Rain = 0.02
KMC1 250053Z 33008KT 17/17 A2998 RMK A01 T01700168  RH  099%=      5-min Rain = 0.02
KMC1 250054Z 34007KT 17/17 A2998 RMK A01 T01700168  RH  099%=      5-min Rain = 0.01
KMC1 250055Z 04005KT 17/17 A2999 RMK A01 T01700168  RH  099%=      5-min Rain = 0
KMC1 250056Z 07008KT 17/17 A2999 RMK A01 T01700169  RH  099%=      5-min Rain = 0.01
KMC1 250057Z 06009G14KT 17/17 A30 RMK A01 T01710169  RH  099%=      5-min Rain = 0.02
KMC1 250058Z 04009KT 17/17 A30 RMK A01 T01700169  RH  099%=      5-min Rain = 0.05
KMC1 250059Z 35009G21KT 17/17 A2999 RMK A01 T01700169  RH  099%=      5-min Rain = 0.02
KMC1 250100Z 05010G18KT 17/17 A30 RMK A01 T01720171  RH  100%=      5-min Rain = 0.02
KMC1 250101Z 09013G19KT 17/17 A3001 RMK A01 T01740173  RH  100%=      5-min Rain = 0.02
KMC1 250102Z 07010G18KT 17/17 A30 RMK A01 T01740173  RH  099%=      5-min Rain = 0.03
KMC1 250103Z 07010G17KT 17/17 A2999 RMK A01 T01740173  RH  099%=      5-min Rain = 0.01
KMC1 250104Z 07011G21KT 17/17 A2999 RMK A01 T01740173  RH  099%=      5-min Rain = 0.02
KMC1 250105Z 06014G23KT 18/18 A2998 RMK A01 T01770177  RH  100%=      5-min Rain = 0.03
KMC1 250106Z 07010G16KT 18/18 A2998 RMK A01 T01810181  RH  100%=      5-min Rain = 0.02
KMC1 250107Z 07008KT 18/18 A2998 RMK A01 T01830183  RH  100%=      5-min Rain = 0.01
KMC1 250108Z 07011G17KT 18/18 A2998 RMK A01 T01840184  RH  100%=      5-min Rain = 0.01
KMC1 250109Z 07009G17KT 18/18 A2998 RMK A01 T01840184  RH  100%=      5-min Rain = 0
KMC1 250110Z 05009KT 19/19 A2998 RMK A01 T01850185  RH  100%=      5-min Rain = 0.01
KMC1 250111Z 05008G13KT 19/19 A2998 RMK A01 T01850185  RH  100%=      5-min Rain = 0
KMC1 250112Z 06008KT 18/18 A2999 RMK A01 T01840184  RH  100%=      5-min Rain = 0
KMC1 250113Z 06007KT 18/18 A2999 RMK A01 T01840184  RH  100%=      5-min Rain = 0.01
KMC1 250114Z 05008KT 18/18 A30 RMK A01 T01840183  RH  100%=      5-min Rain = 0
KMC1 250115Z 04007KT 18/18 A30 RMK A01 T01840183  RH  099%=      5-min Rain = 0
KMC1 250116Z 04010KT 18/18 A30 RMK A01 T01840182  RH  099%=      5-min Rain = 0
KMC1 250117Z 04010G18KT 18/18 A30 RMK A01 T01840182  RH  098%=      5-min Rain = 0
KMC1 250118Z 04017G22KT 19/18 A30 RMK A01 T01870184  RH  098%=      5-min Rain = 0
KMC1 250119Z 02014KT 19/19 A30 RMK A01 T01930191  RH  099%=      5-min Rain = 0
KMC1 250120Z 03013KT 20/19 A30 RMK A01 T01960191  RH  096%=      5-min Rain = 0
KMC1 250121Z 03014KT 20/19 A30 RMK A01 T01970189  RH  095%=      5-min Rain = 0.01
KMC1 250122Z 00012G19KT 20/19 A30 RMK A01 T01980188  RH  094%=      5-min Rain = 0
KMC1 250123Z 36017G26KT 20/17 A2999 RMK A01 T01990173  RH  085%=      5-min Rain = 0
KMC1 250124Z 01009KT 20/17 A2999 RMK A01 T02030171  RH  082%=      5-min Rain = 0
KMC1 250125Z 01009KT 20/17 A2998 RMK A01 T02040173  RH  083%=      5-min Rain = 0
KMC1 250126Z 03010KT 20/17 A2998 RMK A01 T02030171  RH  082%=      5-min Rain = 0
KMC1 250127Z 04009KT 20/17 A2999 RMK A01 T02040168  RH  080%=      5-min Rain = 0
KMC1 250128Z 05009KT 20/18 A2999 RMK A01 T02040175  RH  083%=      5-min Rain = 0
KMC1 250129Z 06005KT 20/18 A2999 RMK A01 T02020179  RH  087%=      5-min Rain = 0
KMC1 250130Z 05007KT 20/18 A2999 RMK A01 T01990180  RH  089%=      5-min Rain = 0.01
KMC1 250131Z 03006KT 20/18 A2999 RMK A01 T01970179  RH  090%=      5-min Rain = 0
KMC1 250132Z 01009KT 20/18 A2999 RMK A01 T01960175  RH  088%=      5-min Rain = 0.01
KMC1 250133Z 36014KT 20/17 A2999 RMK A01 T01990166  RH  081%=      5-min Rain = 0.01
KMC1 250134Z 36010G15KT 20/17 A30 RMK A01 T02040166  RH  079%=      5-min Rain = 0.01
KMC1 250135Z 01012KT 21/16 A30 RMK A01 T02060164  RH  077%=      5-min Rain = 0.01
KMC1 250136Z 36012KT 21/17 A3001 RMK A01 T02060166  RH  078%=      5-min Rain = 0.01
KMC1 250137Z 01014KT 21/17 A3001 RMK A01 T02070165  RH  077%=      5-min Rain = 0.01
KMC1 250138Z 36014KT 21/16 A3001 RMK A01 T02090164  RH  076%=      5-min Rain = 0.01
KMC1 250139Z 34008KT 21/16 A3001 RMK A01 T02090161  RH  074%=      5-min Rain = 0.01
KMC1 250140Z 35008KT 21/16 A3001 RMK A01 T02090162  RH  074%=      5-min Rain = 0.04
KMC1 250141Z 01010KT 21/17 A3001 RMK A01 T02060167  RH  078%=      5-min Rain = 0.03
KMC1 250142Z 01010KT 20/17 A3001 RMK A01 T02040168  RH  080%=      5-min Rain = 0.01
KMC1 250143Z 36017G22KT 20/16 A2999 RMK A01 T02020156  RH  075%=      5-min Rain = 0.01
KMC1 250144Z 34011KT 21/13 A2998 RMK A01 T02090128  RH  060%=      5-min Rain = 0
KMC1 250145Z 36011KT 22/13 A2998 RMK A01 T02160132  RH  059%=      5-min Rain = 0.01
KMC1 250146Z 03008KT 22/14 A2998 RMK A01 T02180143  RH  062%=      5-min Rain = 0
KMC1 250147Z 07006KT 21/16 A2999 RMK A01 T02130155  RH  070%=      5-min Rain = 0.01
KMC1 250148Z 12006KT 21/16 A2999 RMK A01 T02060163  RH  076%=      5-min Rain = 0
KMC1 250149Z 12003KT 20/17 A2998 RMK A01 T02010167  RH  080%=      5-min Rain = 0.01
KMC1 250150Z 18002KT 20/17 A2998 RMK A01 T01990168  RH  083%=      5-min Rain = 0
KMC1 250151Z 17001KT 20/17 A2998 RMK A01 T01970170  RH  084%=      5-min Rain = 0
KMC1 250152Z 24001KT 20/17 A2997 RMK A01 T01960170  RH  085%=      5-min Rain = 0.01
KMC1 250153Z 22003KT 19/17 A2997 RMK A01 T01940170  RH  086%=      5-min Rain = 0
KMC1 250154Z 22004KT 19/17 A2997 RMK A01 T01930171  RH  087%=      5-min Rain = 0
KMC1 250155Z 23006KT 19/17 A2997 RMK A01 T01920174  RH  089%=      5-min Rain = 0
KMC1 250156Z 22008KT 19/18 A2997 RMK A01 T01910175  RH  091%=      5-min Rain = 0.01
KMC1 250157Z 22006KT 19/18 A2997 RMK A01 T01900175  RH  091%=      5-min Rain = 0
KMC1 250158Z 22004KT 19/17 A2998 RMK A01 T01890173  RH  090%=      5-min Rain = 0
KMC1 250159Z 22003KT 19/17 A2998 RMK A01 T01900174  RH  090%=      5-min Rain = 0
KMC1 250200Z 21006KT 19/17 A2998 RMK A01 T01900174  RH  090%=      5-min Rain = 0
KMC1 250201Z 21008KT 19/18 A2998 RMK A01 T01910176  RH  091%=      5-min Rain = 0
KMC1 250202Z 21009KT 19/18 A2998 RMK A01 T01910177  RH  092%=      5-min Rain = 0
KMC1 250203Z 20008KT 19/18 A2998 RMK A01 T01900177  RH  092%=      5-min Rain = 0.01
KMC1 250204Z 20008KT 19/18 A2998 RMK A01 T01900178  RH  092%=      5-min Rain = 0
KMC1 250205Z 18008KT 19/18 A2998 RMK A01 T01900179  RH  093%=      5-min Rain = 0
KMC1 250206Z 17010KT 19/18 A2998 RMK A01 T01890180  RH  094%=      5-min Rain = 0
KMC1 250207Z 17011KT 19/18 A2998 RMK A01 T01890180  RH  095%=      5-min Rain = 0
KMC1 250208Z 16011KT 19/18 A2998 RMK A01 T01890180  RH  095%=      5-min Rain = 0
KMC1 250209Z 17011KT 19/18 A2999 RMK A01 T01890181  RH  095%=      5-min Rain = 0
KMC1 250210Z 17012KT 19/18 A2999 RMK A01 T01890182  RH  096%=      5-min Rain = 0
KMC1 250211Z 17011KT 19/18 A2999 RMK A01 T01890183  RH  096%=      5-min Rain = 0.01
KMC1 250212Z 17012KT 19/18 A2999 RMK A01 T01890183  RH  096%=      5-min Rain = 0
KMC1 250213Z 18011KT 19/18 A2999 RMK A01 T01900183  RH  096%=      5-min Rain = 0.01
KMC1 250214Z 18012KT 19/18 A30 RMK A01 T01910183  RH  095%=      5-min Rain = 0
KMC1 250215Z 19009KT 19/18 A30 RMK A01 T01930181  RH  093%=      5-min Rain = 0.01
KMC1 250216Z 19011KT 19/18 A30 RMK A01 T01940181  RH  092%=      5-min Rain = 0.01
KMC1 250217Z 19009G15KT 20/18 A30 RMK A01 T01950180  RH  091%=      5-min Rain = 0.01
KMC1 250218Z 19010KT 20/18 A30 RMK A01 T01950179  RH  091%=      5-min Rain = 0.01
KMC1 250219Z 19008KT 20/18 A30 RMK A01 T01950179  RH  090%=      5-min Rain = 0.01
KMC1 250220Z 19008KT 20/18 A30 RMK A01 T01950179  RH  090%=      5-min Rain = 0.01
KMC1 250221Z 19009KT 19/18 A30 RMK A01 T01940179  RH  091%=      5-min Rain = 0.01
KMC1 250222Z 19009KT 19/18 A30 RMK A01 T01930179  RH  092%=      5-min Rain = 0
KMC1 250223Z 19010KT 19/18 A2999 RMK A01 T01920178  RH  091%=      5-min Rain = 0.01
KMC1 250224Z 19008KT 19/18 A2999 RMK A01 T01920177  RH  091%=      5-min Rain = 0
KMC1 250225Z 19008KT 19/18 A2999 RMK A01 T01910176  RH  091%=      5-min Rain = 0.01
KMC1 250226Z 18009KT 19/18 A2999 RMK A01 T01910175  RH  090%=      5-min Rain = 0
KMC1 250227Z 19010KT 19/17 A2999 RMK A01 T01900174  RH  091%=      5-min Rain = 0.01
KMC1 250228Z 18011KT 19/17 A2999 RMK A01 T01890174  RH  091%=      5-min Rain = 0
KMC1 250229Z 19010KT 19/17 A2999 RMK A01 T01880174  RH  091%=      5-min Rain = 0
KMC1 250230Z 19010KT 19/17 A30 RMK A01 T01880174  RH  092%=      5-min Rain = 0.01
KMC1 250231Z 19009KT 19/18 A30 RMK A01 T01880175  RH  092%=      5-min Rain = 0
KMC1 250232Z 20008KT 19/18 A30 RMK A01 T01890177  RH  093%=      5-min Rain = 0
KMC1 250233Z 20006KT 19/18 A30 RMK A01 T01900180  RH  094%=      5-min Rain = 0
KMC1 250234Z 19007KT 19/18 A30 RMK A01 T01910181  RH  094%=      5-min Rain = 0
KMC1 250235Z 17007KT 19/18 A30 RMK A01 T01920183  RH  094%=      5-min Rain = 0.01
KMC1 250236Z 12005KT 19/18 A30 RMK A01 T01930184  RH  095%=      5-min Rain = 0
KMC1 250237Z 12009KT 19/18 A30 RMK A01 T01920183  RH  094%=      5-min Rain = 0
KMC1 250238Z 11008KT 19/19 A3001 RMK A01 T01920185  RH  095%=      5-min Rain = 0
KMC1 250239Z 10011KT 20/19 A3001 RMK A01 T01950189  RH  096%=      5-min Rain = 0
KMC1 250240Z 12008KT 20/19 A3001 RMK A01 T02010193  RH  095%=      5-min Rain = 0
KMC1 250241Z 11010KT 21/19 A3001 RMK A01 T02050193  RH  093%=      5-min Rain = 0
KMC1 250242Z 11010KT 20/19 A3001 RMK A01 T02040190  RH  091%=      5-min Rain = 0
KMC1 250243Z 10011KT 20/19 A3001 RMK A01 T02020188  RH  092%=      5-min Rain = 0
KMC1 250244Z 11012KT 20/18 A30 RMK A01 T01980182  RH  090%=      5-min Rain = 0
KMC1 250245Z 11011KT 20/18 A30 RMK A01 T01950183  RH  092%=      5-min Rain = 0
KMC1 250246Z 12011KT 20/19 A30 RMK A01 T01950187  RH  095%=      5-min Rain = 0
KMC1 250247Z 11011KT 20/19 A30 RMK A01 T01970187  RH  094%=      5-min Rain = 0
KMC1 250248Z 11010KT 20/18 A30 RMK A01 T01960182  RH  092%=      5-min Rain = 0
KMC1 250249Z 12010KT 19/18 A30 RMK A01 T01940181  RH  092%=      5-min Rain = 0
KMC1 250250Z 12008KT 19/18 A30 RMK A01 T01920182  RH  094%=      5-min Rain = 0
KMC1 250251Z 11005KT 19/18 A30 RMK A01 T01920184  RH  095%=      5-min Rain = 0
KMC1 250252Z 10005KT 19/19 A3001 RMK A01 T01920185  RH  095%=      5-min Rain = 0
KMC1 250253Z 10005KT 19/19 A3001 RMK A01 T01920186  RH  096%=      5-min Rain = 0
KMC1 250254Z 11006KT 19/19 A3001 RMK A01 T01930188  RH  097%=      5-min Rain = 0
KMC1 250255Z 10006KT 19/19 A3001 RMK A01 T01940190  RH  097%=      5-min Rain = 0
KMC1 250256Z 10005KT 20/19 A3001 RMK A01 T01950191  RH  098%=      5-min Rain = 0
KMC1 250257Z 12004KT 20/19 A3001 RMK A01 T01960192  RH  098%=      5-min Rain = 0
KMC1 250258Z 12003KT 20/19 A30 RMK A01 T01980193  RH  097%=      5-min Rain = 0
KMC1 250259Z 12004KT 20/19 A3001 RMK A01 T01980193  RH  097%=      5-min Rain = 0
KMC1 250300Z 10004KT 20/19 A3001 RMK A01 T01990194  RH  097%=      5-min Rain = 0
KMC1 250301Z 10003KT 20/20 A3001 RMK A01 T02010195  RH  097%=      5-min Rain = 0
KMC1 250302Z 08001KT 20/20 A3001 RMK A01 T02020196  RH  096%=      5-min Rain = 0
KMC1 250303Z 08002KT 20/20 A3001 RMK A01 T02040196  RH  095%=      5-min Rain = 0
KMC1 250304Z 08003KT 21/20 A3001 RMK A01 T02050196  RH  095%=      5-min Rain = 0
KMC1 250305Z 05003KT 21/20 A3001 RMK A01 T02060196  RH  094%=      5-min Rain = 0
KMC1 250306Z 04002KT 21/20 A3002 RMK A01 T02060196  RH  094%=      5-min Rain = 0
KMC1 250307Z 05001KT 21/20 A3002 RMK A01 T02070196  RH  093%=      5-min Rain = 0
KMC1 250308Z 03002KT 21/20 A3002 RMK A01 T02070196  RH  094%=      5-min Rain = 0
KMC1 250309Z 34006KT 21/20 A3003 RMK A01 T02070197  RH  094%=      5-min Rain = 0
KMC1 250310Z 34007KT 21/20 A3003 RMK A01 T02060196  RH  094%=      5-min Rain = 0
KMC1 250311Z 33009KT 20/20 A3004 RMK A01 T02040195  RH  094%=      5-min Rain = 0
KMC1 250312Z 34009KT 20/20 A3004 RMK A01 T02040196  RH  095%=      5-min Rain = 0
KMC1 250313Z 33007KT 20/20 A3004 RMK A01 T02040196  RH  095%=      5-min Rain = 0
KMC1 250314Z 34008KT 21/20 A3005 RMK A01 T02050196  RH  095%=      5-min Rain = 0
KMC1 250315Z 35007KT 21/20 A3005 RMK A01 T02050197  RH  095%=      5-min Rain = 0
KMC1 250316Z 00006KT 21/20 A3005 RMK A01 T02060197  RH  094%=      5-min Rain = 0
KMC1 250317Z 02004KT 21/20 A3005 RMK A01 T02060197  RH  095%=      5-min Rain = 0
KMC1 250318Z 04008G14KT 21/20 A3005 RMK A01 T02060197  RH  094%=      5-min Rain = 0
KMC1 250319Z 04007G13KT 21/20 A3005 RMK A01 T02080198  RH  094%=      5-min Rain = 0
KMC1 250320Z 05005KT 21/20 A3005 RMK A01 T02090199  RH  094%=      5-min Rain = 0
KMC1 250321Z 05005KT 21/20 A3005 RMK A01 T02090198  RH  093%=      5-min Rain = 0
KMC1 250322Z 06005KT 21/20 A3005 RMK A01 T02100199  RH  094%=      5-min Rain = 0
KMC1 250323Z 07006KT 21/20 A3005 RMK A01 T02090200  RH  095%=      5-min Rain = 0
KMC1 250324Z 07006KT 21/20 A3005 RMK A01 T02080200  RH  095%=      5-min Rain = 0
KMC1 250325Z 08005KT 21/20 A3005 RMK A01 T02080201  RH  096%=      5-min Rain = 0
KMC1 250326Z 07005KT 21/20 A3004 RMK A01 T02080201  RH  096%=      5-min Rain = 0
KMC1 250327Z 08006KT 21/20 A3004 RMK A01 T02070201  RH  096%=      5-min Rain = 0
KMC1 250328Z 07004KT 21/20 A3004 RMK A01 T02080200  RH  095%=      5-min Rain = 0
KMC1 250329Z 08006KT 21/20 A3004 RMK A01 T02090200  RH  094%=      5-min Rain = 0
KMC1 250330Z 08006G11KT 21/20 A3005 RMK A01 T02100200  RH  094%=      5-min Rain = 0.01
KMC1 250331Z 07009G14KT 21/20 A3005 RMK A01 T02110198  RH  093%=      5-min Rain = 0
KMC1 250332Z 07006KT 21/20 A3005 RMK A01 T02110197  RH  091%=      5-min Rain = 0
KMC1 250333Z 08006KT 21/20 A3005 RMK A01 T02130197  RH  091%=      5-min Rain = 0
KMC1 250334Z 08004KT 21/20 A3004 RMK A01 T02130197  RH  091%=      5-min Rain = 0
KMC1 250335Z 09005KT 21/20 A3004 RMK A01 T02130198  RH  091%=      5-min Rain = 0
KMC1 250336Z 09005KT 21/20 A3004 RMK A01 T02130198  RH  091%=      5-min Rain = 0
KMC1 250337Z 09006KT 21/20 A3004 RMK A01 T02130198  RH  091%=      5-min Rain = 0
KMC1 250338Z 10006KT 21/20 A3004 RMK A01 T02130197  RH  091%=      5-min Rain = 0
KMC1 250339Z 10007KT 21/20 A3003 RMK A01 T02130198  RH  091%=      5-min Rain = 0
KMC1 250340Z 10006KT 21/20 A3003 RMK A01 T02130198  RH  091%=      5-min Rain = 0
KMC1 250341Z 10006KT 21/20 A3003 RMK A01 T02120199  RH  092%=      5-min Rain = 0
KMC1 250342Z 09006KT 21/20 A3003 RMK A01 T02120199  RH  092%=      5-min Rain = 0
KMC1 250343Z 09005KT 21/20 A3003 RMK A01 T02110199  RH  093%=      5-min Rain = 0
KMC1 250344Z 09007KT 21/20 A3003 RMK A01 T02110199  RH  093%=      5-min Rain = 0
KMC1 250345Z 10006KT 21/20 A3003 RMK A01 T02110200  RH  093%=      5-min Rain = 0
KMC1 250346Z 10007KT 21/20 A3003 RMK A01 T02110200  RH  094%=      5-min Rain = 0
KMC1 250347Z 11006KT 21/20 A3003 RMK A01 T02100200  RH  094%=      5-min Rain = 0
KMC1 250348Z 11007KT 21/20 A3003 RMK A01 T02100200  RH  094%=      5-min Rain = 0
KMC1 250349Z 12006KT 21/20 A3003 RMK A01 T02100200  RH  094%=      5-min Rain = 0
KMC1 250350Z 12008KT 21/20 A3003 RMK A01 T02100200  RH  094%=      5-min Rain = 0
KMC1 250351Z 13009KT 21/20 A3003 RMK A01 T02090199  RH  094%=      5-min Rain = 0
KMC1 250352Z 13008KT 21/20 A3003 RMK A01 T02090199  RH  094%=      5-min Rain = 0
KMC1 250353Z 13010KT 21/20 A3003 RMK A01 T02090199  RH  094%=      5-min Rain = 0
KMC1 250354Z 13010KT 21/20 A3003 RMK A01 T02090199  RH  094%=      5-min Rain = 0
KMC1 250355Z 14011KT 21/20 A3003 RMK A01 T02080199  RH  094%=      5-min Rain = 0
KMC1 250356Z 14010G15KT 21/20 A3003 RMK A01 T02080198  RH  094%=      5-min Rain = 0
KMC1 250357Z 14011KT 21/20 A3003 RMK A01 T02080199  RH  094%=      5-min Rain = 0
KMC1 250358Z 13011KT 21/20 A3003 RMK A01 T02090199  RH  094%=      5-min Rain = 0
KMC1 250359Z 13011KT 21/20 A3003 RMK A01 T02080199  RH  094%=      5-min Rain = 0
KMC1 250400Z 13010KT 21/20 A3003 RMK A01 T02080198  RH  094%=      5-min Rain = 0
KMC1 250401Z 13009G14KT 21/20 A3003 RMK A01 T02080198  RH  094%=      5-min Rain = 0
KMC1 250402Z 13010KT 21/20 A3004 RMK A01 T02090198  RH  094%=      5-min Rain = 0
KMC1 250403Z 14009KT 21/20 A3004 RMK A01 T02090198  RH  094%=      5-min Rain = 0
KMC1 250404Z 14008KT 21/20 A3004 RMK A01 T02090198  RH  094%=      5-min Rain = 0
KMC1 250405Z 13009KT 21/20 A3004 RMK A01 T02080198  RH  094%=      5-min Rain = 0
KMC1 250406Z 13010KT 21/20 A3004 RMK A01 T02080198  RH  094%=      5-min Rain = 0
KMC1 250407Z 13009KT 21/20 A3004 RMK A01 T02080197  RH  093%=      5-min Rain = 0
KMC1 250408Z 12006KT 21/20 A3004 RMK A01 T02090197  RH  093%=      5-min Rain = 0
KMC1 250409Z 15003KT 21/20 A3005 RMK A01 T02090198  RH  093%=      5-min Rain = 0
KMC1 250410Z 20002KT 21/20 A3005 RMK A01 T02090198  RH  093%=      5-min Rain = 0
KMC1 250411Z 27004G9KT 21/20 A3005 RMK A01 T02090198  RH  093%=      5-min Rain = 0
KMC1 250412Z 29009KT 21/20 A3006 RMK A01 T02090199  RH  094%=      5-min Rain = 0
KMC1 250413Z 29006KT 21/20 A3006 RMK A01 T02080200  RH  095%=      5-min Rain = 0
KMC1 250414Z 28004KT 21/20 A3006 RMK A01 T02080200  RH  095%=      5-min Rain = 0
KMC1 250415Z 31001KT 21/20 A3006 RMK A01 T02070200  RH  096%=      5-min Rain = 0
KMC1 250416Z 25006G12KT 21/20 A3006 RMK A01 T02070200  RH  096%=      5-min Rain = 0
KMC1 250417Z 24007KT 21/20 A3006 RMK A01 T02060198  RH  095%=      5-min Rain = 0
KMC1 250418Z 25004KT 21/19 A3005 RMK A01 T02080194  RH  092%=      5-min Rain = 0
KMC1 250419Z 18004KT 21/19 A3005 RMK A01 T02110192  RH  089%=      5-min Rain = 0
KMC1 250420Z 18003KT 21/19 A3004 RMK A01 T02130190  RH  086%=      5-min Rain = 0
KMC1 250421Z 12005KT 22/19 A3004 RMK A01 T02150191  RH  086%=      5-min Rain = 0
KMC1 250422Z 08004KT 22/20 A3004 RMK A01 T02150196  RH  089%=      5-min Rain = 0
KMC1 250423Z 08002KT 21/20 A3004 RMK A01 T02130197  RH  090%=      5-min Rain = 0
KMC1 250424Z 05002KT 21/20 A3004 RMK A01 T02120197  RH  091%=      5-min Rain = 0
KMC1 250425Z 04000KT 21/20 A3005 RMK A01 T02100197  RH  092%=      5-min Rain = 0
KMC1 250426Z 29002KT 21/20 A3005 RMK A01 T02090198  RH  093%=      5-min Rain = 0
KMC1 250427Z 30004KT 21/20 A3005 RMK A01 T02080196  RH  093%=      5-min Rain = 0
KMC1 250428Z 31004KT 21/20 A3005 RMK A01 T02080196  RH  093%=      5-min Rain = 0
KMC1 250429Z 31004KT 21/20 A3005 RMK A01 T02090196  RH  092%=      5-min Rain = 0
KMC1 250430Z 34003KT 21/20 A3005 RMK A01 T02090196  RH  092%=      5-min Rain = 0
KMC1 250431Z 33002KT 21/19 A3006 RMK A01 T02090194  RH  091%=      5-min Rain = 0
KMC1 250432Z 28002KT 21/20 A3006 RMK A01 T02100195  RH  091%=      5-min Rain = 0
KMC1 250433Z 26002KT 21/20 A3006 RMK A01 T02110195  RH  091%=      5-min Rain = 0
KMC1 250434Z 22001KT 21/20 A3006 RMK A01 T02110196  RH  091%=      5-min Rain = 0
KMC1 250435Z 20002KT 21/20 A3006 RMK A01 T02110196  RH  091%=      5-min Rain = 0
KMC1 250436Z 22002KT 21/20 A3006 RMK A01 T02110197  RH  092%=      5-min Rain = 0
KMC1 250437Z 23003KT 21/20 A3006 RMK A01 T02100199  RH  093%=      5-min Rain = 0
KMC1 250438Z 23003KT 21/20 A3006 RMK A01 T02090199  RH  094%=      5-min Rain = 0
KMC1 250439Z 24003KT 21/20 A3006 RMK A01 T02080199  RH  095%=      5-min Rain = 0
KMC1 250440Z 23002KT 21/20 A3006 RMK A01 T02070199  RH  095%=      5-min Rain = 0
KMC1 250441Z 22002KT 21/20 A3006 RMK A01 T02070198  RH  095%=      5-min Rain = 0
KMC1 250442Z 22001KT 21/20 A3006 RMK A01 T02060198  RH  095%=      5-min Rain = 0
KMC1 250443Z 21002KT 21/20 A3006 RMK A01 T02060199  RH  096%=      5-min Rain = 0
KMC1 250444Z 19003KT 21/20 A3006 RMK A01 T02060198  RH  096%=      5-min Rain = 0
KMC1 250445Z 19003KT 21/20 A3006 RMK A01 T02050199  RH  096%=      5-min Rain = 0
KMC1 250446Z 20003KT 21/20 A3006 RMK A01 T02050199  RH  096%=      5-min Rain = 0
KMC1 250447Z 18003KT 21/20 A3005 RMK A01 T02050199  RH  096%=      5-min Rain = 0
KMC1 250448Z 17004KT 21/20 A3005 RMK A01 T02050198  RH  096%=      5-min Rain = 0
KMC1 250449Z 17006KT 21/20 A3005 RMK A01 T02050198  RH  096%=      5-min Rain = 0
KMC1 250450Z 17006KT 21/20 A3005 RMK A01 T02050199  RH  096%=      5-min Rain = 0
KMC1 250451Z 17007KT 21/20 A3005 RMK A01 T02050199  RH  097%=      5-min Rain = 0
KMC1 250452Z 17008KT 21/20 A3005 RMK A01 T02050199  RH  097%=      5-min Rain = 0
KMC1 250453Z 17009KT 20/20 A3005 RMK A01 T02040199  RH  097%=      5-min Rain = 0
KMC1 250454Z 17008KT 20/20 A3005 RMK A01 T02040198  RH  096%=      5-min Rain = 0
KMC1 250455Z 18009KT 21/20 A3005 RMK A01 T02050197  RH  095%=      5-min Rain = 0
KMC1 250456Z 17009KT 21/20 A3005 RMK A01 T02060197  RH  095%=      5-min Rain = 0
KMC1 250457Z 16008KT 21/20 A3005 RMK A01 T02060197  RH  095%=      5-min Rain = 0
KMC1 250458Z 15007KT 21/20 A3005 RMK A01 T02060198  RH  095%=      5-min Rain = 0
KMC1 250459Z 15008KT 21/20 A3005 RMK A01 T02060198  RH  095%=      5-min Rain = 0

Page generated in 0.1244 seconds.